<?xml version="1.0" encoding="UTF-8" standalone="no" ?>
<gpx xmlns="http://www.topografix.com/GPX/1/1" xmlns:xsi="http://www.w3.org/2001/XMLSchema-instance" xsi:schemaLocation="http://www.topografix.com/GPX/1/1 http://www.topografix.com/GPX/1/1/gpx.xsd" version="1.1" creator="VisuGPX - https://www.visugpx.com">
  <metadata>
    <name>GILHOC SUR ORMEZE 2 Le serre de la Maisonnette</name>
  </metadata>
  <trk>
    <name><![CDATA[GILHOC SUR ORMEZE 2 Le serre de la Maisonnette_1]]></name>
    <extensions>
      <line xmlns="http://www.topografix.com/GPX/gpx_style/0/2">
        <color>0000FF</color>
        <width>4</width>
      </line>
    </extensions>
    <trkseg>
      <trkpt lat="44.98613" lon="4.68809">
        <ele>491</ele>
        <time>2018-01-24T13:45:14+01:00</time>
      </trkpt>
      <trkpt lat="44.98617" lon="4.68826">
        <ele>491</ele>
        <time>2018-01-24T13:47:13+01:00</time>
      </trkpt>
      <trkpt lat="44.98616" lon="4.68836">
        <ele>490</ele>
        <time>2018-01-24T13:47:22+01:00</time>
      </trkpt>
      <trkpt lat="44.98624" lon="4.68849">
        <ele>489</ele>
        <time>2018-01-24T13:47:32+01:00</time>
      </trkpt>
      <trkpt lat="44.98631" lon="4.68849">
        <ele>488</ele>
        <time>2018-01-24T13:47:35+01:00</time>
      </trkpt>
      <trkpt lat="44.98645" lon="4.68855">
        <ele>487</ele>
        <time>2018-01-24T13:47:42+01:00</time>
      </trkpt>
      <trkpt lat="44.98645" lon="4.68877">
        <ele>485</ele>
        <time>2018-01-24T13:47:51+01:00</time>
      </trkpt>
      <trkpt lat="44.98647" lon="4.68898">
        <ele>483</ele>
        <time>2018-01-24T13:48:04+01:00</time>
      </trkpt>
      <trkpt lat="44.98653" lon="4.68907">
        <ele>481</ele>
        <time>2018-01-24T13:48:12+01:00</time>
      </trkpt>
      <trkpt lat="44.98652" lon="4.68909">
        <ele>481</ele>
        <time>2018-01-24T13:48:17+01:00</time>
      </trkpt>
      <trkpt lat="44.98656" lon="4.68914">
        <ele>480</ele>
        <time>2018-01-24T13:48:23+01:00</time>
      </trkpt>
      <trkpt lat="44.98656" lon="4.68918">
        <ele>480</ele>
        <time>2018-01-24T13:48:27+01:00</time>
      </trkpt>
      <trkpt lat="44.98653" lon="4.68932">
        <ele>481</ele>
        <time>2018-01-24T13:48:36+01:00</time>
      </trkpt>
      <trkpt lat="44.98652" lon="4.68935">
        <ele>481</ele>
        <time>2018-01-24T13:48:38+01:00</time>
      </trkpt>
      <trkpt lat="44.98641" lon="4.68941">
        <ele>482</ele>
        <time>2018-01-24T13:48:47+01:00</time>
      </trkpt>
      <trkpt lat="44.98632" lon="4.68943">
        <ele>483</ele>
        <time>2018-01-24T13:48:55+01:00</time>
      </trkpt>
      <trkpt lat="44.98622" lon="4.68941">
        <ele>485</ele>
        <time>2018-01-24T13:49:04+01:00</time>
      </trkpt>
      <trkpt lat="44.98616" lon="4.68939">
        <ele>485</ele>
        <time>2018-01-24T13:49:10+01:00</time>
      </trkpt>
      <trkpt lat="44.98618" lon="4.68936">
        <ele>485</ele>
        <time>2018-01-24T13:49:19+01:00</time>
      </trkpt>
      <trkpt lat="44.98611" lon="4.68934">
        <ele>486</ele>
        <time>2018-01-24T13:49:26+01:00</time>
      </trkpt>
      <trkpt lat="44.9861" lon="4.68934">
        <ele>486</ele>
        <time>2018-01-24T13:49:27+01:00</time>
      </trkpt>
      <trkpt lat="44.98605" lon="4.68935">
        <ele>486</ele>
        <time>2018-01-24T13:49:32+01:00</time>
      </trkpt>
      <trkpt lat="44.986" lon="4.68935">
        <ele>487</ele>
        <time>2018-01-24T13:49:35+01:00</time>
      </trkpt>
      <trkpt lat="44.98588" lon="4.68934">
        <ele>488</ele>
        <time>2018-01-24T13:49:43+01:00</time>
      </trkpt>
      <trkpt lat="44.98578" lon="4.68935">
        <ele>490</ele>
        <time>2018-01-24T13:49:50+01:00</time>
      </trkpt>
      <trkpt lat="44.98568" lon="4.68938">
        <ele>491</ele>
        <time>2018-01-24T13:49:58+01:00</time>
      </trkpt>
      <trkpt lat="44.98558" lon="4.68941">
        <ele>493</ele>
        <time>2018-01-24T13:50:06+01:00</time>
      </trkpt>
      <trkpt lat="44.9855" lon="4.68943">
        <ele>494</ele>
        <time>2018-01-24T13:50:13+01:00</time>
      </trkpt>
      <trkpt lat="44.98542" lon="4.68944">
        <ele>495</ele>
        <time>2018-01-24T13:50:20+01:00</time>
      </trkpt>
      <trkpt lat="44.98534" lon="4.68944">
        <ele>496</ele>
        <time>2018-01-24T13:50:27+01:00</time>
      </trkpt>
      <trkpt lat="44.98533" lon="4.68944">
        <ele>496</ele>
        <time>2018-01-24T13:50:28+01:00</time>
      </trkpt>
      <trkpt lat="44.98523" lon="4.68942">
        <ele>498</ele>
        <time>2018-01-24T13:50:35+01:00</time>
      </trkpt>
      <trkpt lat="44.98513" lon="4.68942">
        <ele>499</ele>
        <time>2018-01-24T13:50:42+01:00</time>
      </trkpt>
      <trkpt lat="44.98508" lon="4.68943">
        <ele>500</ele>
        <time>2018-01-24T13:50:49+01:00</time>
      </trkpt>
      <trkpt lat="44.98503" lon="4.68943">
        <ele>501</ele>
        <time>2018-01-24T13:50:53+01:00</time>
      </trkpt>
      <trkpt lat="44.98494" lon="4.68947">
        <ele>502</ele>
        <time>2018-01-24T13:51:02+01:00</time>
      </trkpt>
      <trkpt lat="44.98487" lon="4.6895">
        <ele>503</ele>
        <time>2018-01-24T13:51:09+01:00</time>
      </trkpt>
      <trkpt lat="44.98476" lon="4.68951">
        <ele>504</ele>
        <time>2018-01-24T13:51:17+01:00</time>
      </trkpt>
      <trkpt lat="44.98465" lon="4.68951">
        <ele>506</ele>
        <time>2018-01-24T13:51:26+01:00</time>
      </trkpt>
      <trkpt lat="44.98461" lon="4.6895">
        <ele>506</ele>
        <time>2018-01-24T13:51:29+01:00</time>
      </trkpt>
      <trkpt lat="44.98457" lon="4.68955">
        <ele>507</ele>
        <time>2018-01-24T13:51:34+01:00</time>
      </trkpt>
      <trkpt lat="44.98461" lon="4.68976">
        <ele>505</ele>
        <time>2018-01-24T13:51:45+01:00</time>
      </trkpt>
      <trkpt lat="44.98461" lon="4.68981">
        <ele>505</ele>
        <time>2018-01-24T13:51:48+01:00</time>
      </trkpt>
      <trkpt lat="44.9846" lon="4.68994">
        <ele>505</ele>
        <time>2018-01-24T13:51:57+01:00</time>
      </trkpt>
      <trkpt lat="44.98462" lon="4.68997">
        <ele>504</ele>
        <time>2018-01-24T13:52:00+01:00</time>
      </trkpt>
      <trkpt lat="44.98464" lon="4.68998">
        <ele>504</ele>
        <time>2018-01-24T13:52:02+01:00</time>
      </trkpt>
      <trkpt lat="44.98468" lon="4.68999">
        <ele>504</ele>
        <time>2018-01-24T13:52:09+01:00</time>
      </trkpt>
      <trkpt lat="44.98469" lon="4.69">
        <ele>504</ele>
        <time>2018-01-24T13:52:17+01:00</time>
      </trkpt>
      <trkpt lat="44.98472" lon="4.69007">
        <ele>504</ele>
        <time>2018-01-24T13:52:24+01:00</time>
      </trkpt>
      <trkpt lat="44.98473" lon="4.6901">
        <ele>504</ele>
        <time>2018-01-24T13:52:26+01:00</time>
      </trkpt>
      <trkpt lat="44.98474" lon="4.69021">
        <ele>505</ele>
        <time>2018-01-24T13:52:34+01:00</time>
      </trkpt>
      <trkpt lat="44.98471" lon="4.69032">
        <ele>507</ele>
        <time>2018-01-24T13:52:42+01:00</time>
      </trkpt>
      <trkpt lat="44.9847" lon="4.69043">
        <ele>508</ele>
        <time>2018-01-24T13:52:50+01:00</time>
      </trkpt>
      <trkpt lat="44.98468" lon="4.69051">
        <ele>509</ele>
        <time>2018-01-24T13:52:57+01:00</time>
      </trkpt>
      <trkpt lat="44.98468" lon="4.69054">
        <ele>509</ele>
        <time>2018-01-24T13:52:59+01:00</time>
      </trkpt>
      <trkpt lat="44.98466" lon="4.69056">
        <ele>510</ele>
        <time>2018-01-24T13:53:01+01:00</time>
      </trkpt>
      <trkpt lat="44.98466" lon="4.69068">
        <ele>511</ele>
        <time>2018-01-24T13:53:09+01:00</time>
      </trkpt>
      <trkpt lat="44.98465" lon="4.69079">
        <ele>512</ele>
        <time>2018-01-24T13:53:17+01:00</time>
      </trkpt>
      <trkpt lat="44.98464" lon="4.6909">
        <ele>514</ele>
        <time>2018-01-24T13:53:24+01:00</time>
      </trkpt>
      <trkpt lat="44.98463" lon="4.69099">
        <ele>515</ele>
        <time>2018-01-24T13:53:31+01:00</time>
      </trkpt>
      <trkpt lat="44.98461" lon="4.69112">
        <ele>517</ele>
        <time>2018-01-24T13:53:40+01:00</time>
      </trkpt>
      <trkpt lat="44.98459" lon="4.69121">
        <ele>518</ele>
        <time>2018-01-24T13:53:48+01:00</time>
      </trkpt>
      <trkpt lat="44.98458" lon="4.6912">
        <ele>518</ele>
        <time>2018-01-24T13:53:57+01:00</time>
      </trkpt>
      <trkpt lat="44.98455" lon="4.6912">
        <ele>518</ele>
        <time>2018-01-24T13:54:12+01:00</time>
      </trkpt>
      <trkpt lat="44.98455" lon="4.69132">
        <ele>520</ele>
        <time>2018-01-24T13:54:20+01:00</time>
      </trkpt>
      <trkpt lat="44.98454" lon="4.69141">
        <ele>521</ele>
        <time>2018-01-24T13:54:28+01:00</time>
      </trkpt>
      <trkpt lat="44.98455" lon="4.69139">
        <ele>521</ele>
        <time>2018-01-24T13:54:40+01:00</time>
      </trkpt>
      <trkpt lat="44.98455" lon="4.6914">
        <ele>521</ele>
        <time>2018-01-24T13:54:49+01:00</time>
      </trkpt>
      <trkpt lat="44.98456" lon="4.69142">
        <ele>521</ele>
        <time>2018-01-24T13:54:56+01:00</time>
      </trkpt>
      <trkpt lat="44.98458" lon="4.69141">
        <ele>521</ele>
        <time>2018-01-24T13:55:08+01:00</time>
      </trkpt>
      <trkpt lat="44.98458" lon="4.69141">
        <ele>521</ele>
        <time>2018-01-24T13:55:22+01:00</time>
      </trkpt>
      <trkpt lat="44.98456" lon="4.69141">
        <ele>521</ele>
        <time>2018-01-24T13:55:30+01:00</time>
      </trkpt>
      <trkpt lat="44.98457" lon="4.69145">
        <ele>522</ele>
        <time>2018-01-24T13:55:40+01:00</time>
      </trkpt>
      <trkpt lat="44.9846" lon="4.69148">
        <ele>522</ele>
        <time>2018-01-24T13:56:00+01:00</time>
      </trkpt>
      <trkpt lat="44.98457" lon="4.69148">
        <ele>522</ele>
        <time>2018-01-24T13:56:16+01:00</time>
      </trkpt>
      <trkpt lat="44.98456" lon="4.69149">
        <ele>522</ele>
        <time>2018-01-24T13:56:17+01:00</time>
      </trkpt>
      <trkpt lat="44.9845" lon="4.69157">
        <ele>524</ele>
        <time>2018-01-24T13:56:25+01:00</time>
      </trkpt>
      <trkpt lat="44.98445" lon="4.69166">
        <ele>525</ele>
        <time>2018-01-24T13:56:33+01:00</time>
      </trkpt>
      <trkpt lat="44.98441" lon="4.69174">
        <ele>526</ele>
        <time>2018-01-24T13:56:41+01:00</time>
      </trkpt>
      <trkpt lat="44.9844" lon="4.69176">
        <ele>527</ele>
        <time>2018-01-24T13:56:43+01:00</time>
      </trkpt>
      <trkpt lat="44.98435" lon="4.69191">
        <ele>529</ele>
        <time>2018-01-24T13:56:53+01:00</time>
      </trkpt>
      <trkpt lat="44.98434" lon="4.692">
        <ele>530</ele>
        <time>2018-01-24T13:57:00+01:00</time>
      </trkpt>
      <trkpt lat="44.98433" lon="4.69211">
        <ele>532</ele>
        <time>2018-01-24T13:57:08+01:00</time>
      </trkpt>
      <trkpt lat="44.98432" lon="4.69222">
        <ele>533</ele>
        <time>2018-01-24T13:57:15+01:00</time>
      </trkpt>
      <trkpt lat="44.98435" lon="4.69233">
        <ele>534</ele>
        <time>2018-01-24T13:57:23+01:00</time>
      </trkpt>
      <trkpt lat="44.98443" lon="4.69237">
        <ele>534</ele>
        <time>2018-01-24T13:57:31+01:00</time>
      </trkpt>
      <trkpt lat="44.98449" lon="4.69241">
        <ele>534</ele>
        <time>2018-01-24T13:57:38+01:00</time>
      </trkpt>
      <trkpt lat="44.98451" lon="4.6925">
        <ele>535</ele>
        <time>2018-01-24T13:57:46+01:00</time>
      </trkpt>
      <trkpt lat="44.9845" lon="4.69257">
        <ele>536</ele>
        <time>2018-01-24T13:57:52+01:00</time>
      </trkpt>
      <trkpt lat="44.98444" lon="4.69269">
        <ele>538</ele>
        <time>2018-01-24T13:58:01+01:00</time>
      </trkpt>
      <trkpt lat="44.98444" lon="4.6927">
        <ele>538</ele>
        <time>2018-01-24T13:58:02+01:00</time>
      </trkpt>
      <trkpt lat="44.9844" lon="4.69281">
        <ele>539</ele>
        <time>2018-01-24T13:58:11+01:00</time>
      </trkpt>
      <trkpt lat="44.98438" lon="4.69285">
        <ele>540</ele>
        <time>2018-01-24T13:58:15+01:00</time>
      </trkpt>
      <trkpt lat="44.98432" lon="4.69297">
        <ele>542</ele>
        <time>2018-01-24T13:58:25+01:00</time>
      </trkpt>
      <trkpt lat="44.98427" lon="4.69307">
        <ele>544</ele>
        <time>2018-01-24T13:58:33+01:00</time>
      </trkpt>
      <trkpt lat="44.98424" lon="4.69318">
        <ele>545</ele>
        <time>2018-01-24T13:58:42+01:00</time>
      </trkpt>
      <trkpt lat="44.98427" lon="4.69319">
        <ele>545</ele>
        <time>2018-01-24T13:58:59+01:00</time>
      </trkpt>
      <trkpt lat="44.98429" lon="4.69321">
        <ele>545</ele>
        <time>2018-01-24T13:59:03+01:00</time>
      </trkpt>
      <trkpt lat="44.98432" lon="4.69323">
        <ele>545</ele>
        <time>2018-01-24T13:59:07+01:00</time>
      </trkpt>
      <trkpt lat="44.98434" lon="4.6932">
        <ele>545</ele>
        <time>2018-01-24T13:59:15+01:00</time>
      </trkpt>
      <trkpt lat="44.98438" lon="4.69319">
        <ele>544</ele>
        <time>2018-01-24T13:59:28+01:00</time>
      </trkpt>
      <trkpt lat="44.98438" lon="4.69318">
        <ele>544</ele>
        <time>2018-01-24T13:59:30+01:00</time>
      </trkpt>
      <trkpt lat="44.9845" lon="4.69315">
        <ele>543</ele>
        <time>2018-01-24T13:59:40+01:00</time>
      </trkpt>
      <trkpt lat="44.98462" lon="4.69311">
        <ele>541</ele>
        <time>2018-01-24T13:59:51+01:00</time>
      </trkpt>
      <trkpt lat="44.98474" lon="4.69306">
        <ele>539</ele>
        <time>2018-01-24T14:00:01+01:00</time>
      </trkpt>
      <trkpt lat="44.98484" lon="4.69303">
        <ele>538</ele>
        <time>2018-01-24T14:00:11+01:00</time>
      </trkpt>
      <trkpt lat="44.98497" lon="4.69301">
        <ele>536</ele>
        <time>2018-01-24T14:00:22+01:00</time>
      </trkpt>
      <trkpt lat="44.98507" lon="4.693">
        <ele>535</ele>
        <time>2018-01-24T14:00:31+01:00</time>
      </trkpt>
      <trkpt lat="44.98517" lon="4.69299">
        <ele>534</ele>
        <time>2018-01-24T14:00:40+01:00</time>
      </trkpt>
      <trkpt lat="44.98527" lon="4.69297">
        <ele>533</ele>
        <time>2018-01-24T14:00:49+01:00</time>
      </trkpt>
      <trkpt lat="44.98538" lon="4.69294">
        <ele>532</ele>
        <time>2018-01-24T14:00:59+01:00</time>
      </trkpt>
      <trkpt lat="44.98549" lon="4.69293">
        <ele>531</ele>
        <time>2018-01-24T14:01:10+01:00</time>
      </trkpt>
      <trkpt lat="44.98559" lon="4.69293">
        <ele>531</ele>
        <time>2018-01-24T14:01:19+01:00</time>
      </trkpt>
      <trkpt lat="44.98569" lon="4.69301">
        <ele>530</ele>
        <time>2018-01-24T14:01:29+01:00</time>
      </trkpt>
      <trkpt lat="44.98578" lon="4.69309">
        <ele>530</ele>
        <time>2018-01-24T14:01:38+01:00</time>
      </trkpt>
      <trkpt lat="44.98588" lon="4.69318">
        <ele>530</ele>
        <time>2018-01-24T14:01:48+01:00</time>
      </trkpt>
      <trkpt lat="44.98593" lon="4.69324">
        <ele>530</ele>
        <time>2018-01-24T14:01:56+01:00</time>
      </trkpt>
      <trkpt lat="44.98594" lon="4.69325">
        <ele>530</ele>
        <time>2018-01-24T14:02:10+01:00</time>
      </trkpt>
      <trkpt lat="44.98594" lon="4.69329">
        <ele>530</ele>
        <time>2018-01-24T14:02:15+01:00</time>
      </trkpt>
      <trkpt lat="44.98594" lon="4.69334">
        <ele>530</ele>
        <time>2018-01-24T14:02:18+01:00</time>
      </trkpt>
      <trkpt lat="44.98587" lon="4.69344">
        <ele>532</ele>
        <time>2018-01-24T14:02:27+01:00</time>
      </trkpt>
      <trkpt lat="44.98579" lon="4.69351">
        <ele>533</ele>
        <time>2018-01-24T14:02:35+01:00</time>
      </trkpt>
      <trkpt lat="44.98572" lon="4.69361">
        <ele>535</ele>
        <time>2018-01-24T14:02:44+01:00</time>
      </trkpt>
      <trkpt lat="44.98565" lon="4.69374">
        <ele>537</ele>
        <time>2018-01-24T14:02:55+01:00</time>
      </trkpt>
      <trkpt lat="44.98558" lon="4.69384">
        <ele>538</ele>
        <time>2018-01-24T14:03:04+01:00</time>
      </trkpt>
      <trkpt lat="44.98552" lon="4.69391">
        <ele>540</ele>
        <time>2018-01-24T14:03:13+01:00</time>
      </trkpt>
      <trkpt lat="44.98546" lon="4.69401">
        <ele>541</ele>
        <time>2018-01-24T14:03:22+01:00</time>
      </trkpt>
      <trkpt lat="44.98545" lon="4.69414">
        <ele>543</ele>
        <time>2018-01-24T14:03:30+01:00</time>
      </trkpt>
      <trkpt lat="44.98545" lon="4.69426">
        <ele>544</ele>
        <time>2018-01-24T14:03:38+01:00</time>
      </trkpt>
      <trkpt lat="44.98546" lon="4.69438">
        <ele>545</ele>
        <time>2018-01-24T14:03:46+01:00</time>
      </trkpt>
      <trkpt lat="44.98547" lon="4.6945">
        <ele>546</ele>
        <time>2018-01-24T14:03:54+01:00</time>
      </trkpt>
      <trkpt lat="44.98547" lon="4.69461">
        <ele>547</ele>
        <time>2018-01-24T14:04:03+01:00</time>
      </trkpt>
      <trkpt lat="44.98548" lon="4.69469">
        <ele>547</ele>
        <time>2018-01-24T14:04:08+01:00</time>
      </trkpt>
      <trkpt lat="44.98548" lon="4.69473">
        <ele>547</ele>
        <time>2018-01-24T14:04:11+01:00</time>
      </trkpt>
      <trkpt lat="44.98548" lon="4.69482">
        <ele>548</ele>
        <time>2018-01-24T14:04:18+01:00</time>
      </trkpt>
      <trkpt lat="44.98549" lon="4.69492">
        <ele>549</ele>
        <time>2018-01-24T14:04:25+01:00</time>
      </trkpt>
      <trkpt lat="44.98549" lon="4.69502">
        <ele>550</ele>
        <time>2018-01-24T14:04:32+01:00</time>
      </trkpt>
      <trkpt lat="44.98548" lon="4.69508">
        <ele>550</ele>
        <time>2018-01-24T14:04:36+01:00</time>
      </trkpt>
      <trkpt lat="44.98547" lon="4.69519">
        <ele>550</ele>
        <time>2018-01-24T14:04:45+01:00</time>
      </trkpt>
      <trkpt lat="44.98546" lon="4.69523">
        <ele>550</ele>
        <time>2018-01-24T14:04:52+01:00</time>
      </trkpt>
      <trkpt lat="44.98544" lon="4.69528">
        <ele>551</ele>
        <time>2018-01-24T14:05:00+01:00</time>
      </trkpt>
      <trkpt lat="44.98541" lon="4.69535">
        <ele>552</ele>
        <time>2018-01-24T14:05:08+01:00</time>
      </trkpt>
      <trkpt lat="44.9854" lon="4.6954">
        <ele>553</ele>
        <time>2018-01-24T14:05:17+01:00</time>
      </trkpt>
      <trkpt lat="44.98541" lon="4.69544">
        <ele>552</ele>
        <time>2018-01-24T14:05:27+01:00</time>
      </trkpt>
      <trkpt lat="44.98538" lon="4.69548">
        <ele>553</ele>
        <time>2018-01-24T14:05:37+01:00</time>
      </trkpt>
      <trkpt lat="44.98532" lon="4.69558">
        <ele>555</ele>
        <time>2018-01-24T14:05:48+01:00</time>
      </trkpt>
      <trkpt lat="44.98524" lon="4.69567">
        <ele>557</ele>
        <time>2018-01-24T14:05:59+01:00</time>
      </trkpt>
      <trkpt lat="44.9852" lon="4.69572">
        <ele>559</ele>
        <time>2018-01-24T14:06:07+01:00</time>
      </trkpt>
      <trkpt lat="44.9852" lon="4.69576">
        <ele>559</ele>
        <time>2018-01-24T14:06:21+01:00</time>
      </trkpt>
      <trkpt lat="44.98517" lon="4.69574">
        <ele>560</ele>
        <time>2018-01-24T14:06:30+01:00</time>
      </trkpt>
      <trkpt lat="44.98512" lon="4.69565">
        <ele>561</ele>
        <time>2018-01-24T14:06:37+01:00</time>
      </trkpt>
      <trkpt lat="44.98511" lon="4.69559">
        <ele>561</ele>
        <time>2018-01-24T14:06:43+01:00</time>
      </trkpt>
      <trkpt lat="44.9851" lon="4.69551">
        <ele>561</ele>
        <time>2018-01-24T14:06:50+01:00</time>
      </trkpt>
      <trkpt lat="44.98511" lon="4.69544">
        <ele>561</ele>
        <time>2018-01-24T14:06:57+01:00</time>
      </trkpt>
      <trkpt lat="44.98504" lon="4.69538">
        <ele>563</ele>
        <time>2018-01-24T14:07:05+01:00</time>
      </trkpt>
      <trkpt lat="44.98501" lon="4.69541">
        <ele>564</ele>
        <time>2018-01-24T14:07:14+01:00</time>
      </trkpt>
      <trkpt lat="44.98496" lon="4.69544">
        <ele>565</ele>
        <time>2018-01-24T14:07:21+01:00</time>
      </trkpt>
      <trkpt lat="44.98488" lon="4.69551">
        <ele>566</ele>
        <time>2018-01-24T14:07:30+01:00</time>
      </trkpt>
      <trkpt lat="44.98479" lon="4.69553">
        <ele>568</ele>
        <time>2018-01-24T14:07:39+01:00</time>
      </trkpt>
      <trkpt lat="44.9847" lon="4.69554">
        <ele>570</ele>
        <time>2018-01-24T14:07:48+01:00</time>
      </trkpt>
      <trkpt lat="44.98464" lon="4.69556">
        <ele>571</ele>
        <time>2018-01-24T14:07:55+01:00</time>
      </trkpt>
      <trkpt lat="44.98456" lon="4.69555">
        <ele>572</ele>
        <time>2018-01-24T14:08:03+01:00</time>
      </trkpt>
      <trkpt lat="44.98448" lon="4.69556">
        <ele>573</ele>
        <time>2018-01-24T14:08:11+01:00</time>
      </trkpt>
      <trkpt lat="44.98438" lon="4.69553">
        <ele>575</ele>
        <time>2018-01-24T14:08:20+01:00</time>
      </trkpt>
      <trkpt lat="44.98435" lon="4.69552">
        <ele>576</ele>
        <time>2018-01-24T14:08:26+01:00</time>
      </trkpt>
      <trkpt lat="44.98428" lon="4.69551">
        <ele>577</ele>
        <time>2018-01-24T14:08:33+01:00</time>
      </trkpt>
      <trkpt lat="44.9842" lon="4.69552">
        <ele>578</ele>
        <time>2018-01-24T14:08:42+01:00</time>
      </trkpt>
      <trkpt lat="44.98415" lon="4.69553">
        <ele>579</ele>
        <time>2018-01-24T14:08:50+01:00</time>
      </trkpt>
      <trkpt lat="44.98412" lon="4.69553">
        <ele>580</ele>
        <time>2018-01-24T14:08:53+01:00</time>
      </trkpt>
      <trkpt lat="44.98406" lon="4.69554">
        <ele>581</ele>
        <time>2018-01-24T14:09:01+01:00</time>
      </trkpt>
      <trkpt lat="44.98398" lon="4.69555">
        <ele>582</ele>
        <time>2018-01-24T14:09:08+01:00</time>
      </trkpt>
      <trkpt lat="44.98397" lon="4.69555">
        <ele>583</ele>
        <time>2018-01-24T14:09:09+01:00</time>
      </trkpt>
      <trkpt lat="44.9839" lon="4.69556">
        <ele>584</ele>
        <time>2018-01-24T14:09:16+01:00</time>
      </trkpt>
      <trkpt lat="44.98382" lon="4.69557">
        <ele>586</ele>
        <time>2018-01-24T14:09:22+01:00</time>
      </trkpt>
      <trkpt lat="44.98379" lon="4.69558">
        <ele>587</ele>
        <time>2018-01-24T14:09:25+01:00</time>
      </trkpt>
      <trkpt lat="44.98376" lon="4.69559">
        <ele>587</ele>
        <time>2018-01-24T14:09:27+01:00</time>
      </trkpt>
      <trkpt lat="44.98371" lon="4.6956">
        <ele>588</ele>
        <time>2018-01-24T14:09:33+01:00</time>
      </trkpt>
      <trkpt lat="44.98362" lon="4.69563">
        <ele>590</ele>
        <time>2018-01-24T14:09:42+01:00</time>
      </trkpt>
      <trkpt lat="44.98361" lon="4.69564">
        <ele>591</ele>
        <time>2018-01-24T14:09:43+01:00</time>
      </trkpt>
      <trkpt lat="44.98354" lon="4.6957">
        <ele>593</ele>
        <time>2018-01-24T14:09:50+01:00</time>
      </trkpt>
      <trkpt lat="44.98348" lon="4.69573">
        <ele>594</ele>
        <time>2018-01-24T14:09:57+01:00</time>
      </trkpt>
      <trkpt lat="44.98342" lon="4.69579">
        <ele>596</ele>
        <time>2018-01-24T14:10:04+01:00</time>
      </trkpt>
      <trkpt lat="44.98333" lon="4.69589">
        <ele>598</ele>
        <time>2018-01-24T14:10:12+01:00</time>
      </trkpt>
      <trkpt lat="44.98328" lon="4.696">
        <ele>600</ele>
        <time>2018-01-24T14:10:19+01:00</time>
      </trkpt>
      <trkpt lat="44.98327" lon="4.69604">
        <ele>600</ele>
        <time>2018-01-24T14:10:21+01:00</time>
      </trkpt>
      <trkpt lat="44.98327" lon="4.69617">
        <ele>601</ele>
        <time>2018-01-24T14:10:28+01:00</time>
      </trkpt>
      <trkpt lat="44.98326" lon="4.6963">
        <ele>601</ele>
        <time>2018-01-24T14:10:36+01:00</time>
      </trkpt>
      <trkpt lat="44.98323" lon="4.69641">
        <ele>602</ele>
        <time>2018-01-24T14:10:43+01:00</time>
      </trkpt>
      <trkpt lat="44.98321" lon="4.69651">
        <ele>603</ele>
        <time>2018-01-24T14:10:50+01:00</time>
      </trkpt>
      <trkpt lat="44.9832" lon="4.69667">
        <ele>603</ele>
        <time>2018-01-24T14:11:00+01:00</time>
      </trkpt>
      <trkpt lat="44.98321" lon="4.69672">
        <ele>604</ele>
        <time>2018-01-24T14:11:04+01:00</time>
      </trkpt>
      <trkpt lat="44.98323" lon="4.69683">
        <ele>604</ele>
        <time>2018-01-24T14:11:12+01:00</time>
      </trkpt>
      <trkpt lat="44.98321" lon="4.69698">
        <ele>605</ele>
        <time>2018-01-24T14:11:21+01:00</time>
      </trkpt>
      <trkpt lat="44.9832" lon="4.69709">
        <ele>606</ele>
        <time>2018-01-24T14:11:29+01:00</time>
      </trkpt>
      <trkpt lat="44.98323" lon="4.69724">
        <ele>607</ele>
        <time>2018-01-24T14:11:38+01:00</time>
      </trkpt>
      <trkpt lat="44.98325" lon="4.69721">
        <ele>606</ele>
        <time>2018-01-24T14:11:45+01:00</time>
      </trkpt>
      <trkpt lat="44.98321" lon="4.69719">
        <ele>607</ele>
        <time>2018-01-24T14:11:56+01:00</time>
      </trkpt>
      <trkpt lat="44.98327" lon="4.69732">
        <ele>606</ele>
        <time>2018-01-24T14:12:04+01:00</time>
      </trkpt>
      <trkpt lat="44.98332" lon="4.6974">
        <ele>606</ele>
        <time>2018-01-24T14:12:11+01:00</time>
      </trkpt>
      <trkpt lat="44.98337" lon="4.69751">
        <ele>605</ele>
        <time>2018-01-24T14:12:20+01:00</time>
      </trkpt>
      <trkpt lat="44.98339" lon="4.69753">
        <ele>605</ele>
        <time>2018-01-24T14:12:25+01:00</time>
      </trkpt>
      <trkpt lat="44.9834" lon="4.69757">
        <ele>605</ele>
        <time>2018-01-24T14:12:28+01:00</time>
      </trkpt>
      <trkpt lat="44.98343" lon="4.69767">
        <ele>606</ele>
        <time>2018-01-24T14:12:36+01:00</time>
      </trkpt>
      <trkpt lat="44.98344" lon="4.69777">
        <ele>608</ele>
        <time>2018-01-24T14:12:43+01:00</time>
      </trkpt>
      <trkpt lat="44.98346" lon="4.69788">
        <ele>609</ele>
        <time>2018-01-24T14:12:51+01:00</time>
      </trkpt>
      <trkpt lat="44.98345" lon="4.698">
        <ele>611</ele>
        <time>2018-01-24T14:12:59+01:00</time>
      </trkpt>
      <trkpt lat="44.98346" lon="4.69809">
        <ele>612</ele>
        <time>2018-01-24T14:13:06+01:00</time>
      </trkpt>
      <trkpt lat="44.98349" lon="4.69825">
        <ele>614</ele>
        <time>2018-01-24T14:13:16+01:00</time>
      </trkpt>
      <trkpt lat="44.9835" lon="4.69834">
        <ele>615</ele>
        <time>2018-01-24T14:13:22+01:00</time>
      </trkpt>
      <trkpt lat="44.98352" lon="4.69843">
        <ele>616</ele>
        <time>2018-01-24T14:13:30+01:00</time>
      </trkpt>
      <trkpt lat="44.98352" lon="4.69854">
        <ele>618</ele>
        <time>2018-01-24T14:13:37+01:00</time>
      </trkpt>
      <trkpt lat="44.98351" lon="4.69866">
        <ele>620</ele>
        <time>2018-01-24T14:13:45+01:00</time>
      </trkpt>
      <trkpt lat="44.98352" lon="4.69875">
        <ele>621</ele>
        <time>2018-01-24T14:13:53+01:00</time>
      </trkpt>
      <trkpt lat="44.98352" lon="4.69883">
        <ele>622</ele>
        <time>2018-01-24T14:14:00+01:00</time>
      </trkpt>
      <trkpt lat="44.98353" lon="4.69896">
        <ele>624</ele>
        <time>2018-01-24T14:14:10+01:00</time>
      </trkpt>
      <trkpt lat="44.98353" lon="4.69907">
        <ele>625</ele>
        <time>2018-01-24T14:14:18+01:00</time>
      </trkpt>
      <trkpt lat="44.98356" lon="4.69918">
        <ele>626</ele>
        <time>2018-01-24T14:14:27+01:00</time>
      </trkpt>
      <trkpt lat="44.98359" lon="4.69932">
        <ele>626</ele>
        <time>2018-01-24T14:14:37+01:00</time>
      </trkpt>
      <trkpt lat="44.98359" lon="4.69942">
        <ele>627</ele>
        <time>2018-01-24T14:14:44+01:00</time>
      </trkpt>
      <trkpt lat="44.98361" lon="4.6995">
        <ele>628</ele>
        <time>2018-01-24T14:14:50+01:00</time>
      </trkpt>
      <trkpt lat="44.9836" lon="4.69961">
        <ele>629</ele>
        <time>2018-01-24T14:14:57+01:00</time>
      </trkpt>
      <trkpt lat="44.98358" lon="4.69969">
        <ele>630</ele>
        <time>2018-01-24T14:15:03+01:00</time>
      </trkpt>
      <trkpt lat="44.98356" lon="4.69974">
        <ele>632</ele>
        <time>2018-01-24T14:15:10+01:00</time>
      </trkpt>
      <trkpt lat="44.98355" lon="4.6998">
        <ele>632</ele>
        <time>2018-01-24T14:15:17+01:00</time>
      </trkpt>
      <trkpt lat="44.98352" lon="4.69992">
        <ele>634</ele>
        <time>2018-01-24T14:15:26+01:00</time>
      </trkpt>
      <trkpt lat="44.98352" lon="4.69995">
        <ele>635</ele>
        <time>2018-01-24T14:15:28+01:00</time>
      </trkpt>
      <trkpt lat="44.98349" lon="4.70006">
        <ele>637</ele>
        <time>2018-01-24T14:15:37+01:00</time>
      </trkpt>
      <trkpt lat="44.98348" lon="4.70014">
        <ele>637</ele>
        <time>2018-01-24T14:15:44+01:00</time>
      </trkpt>
      <trkpt lat="44.98349" lon="4.70027">
        <ele>639</ele>
        <time>2018-01-24T14:15:53+01:00</time>
      </trkpt>
      <trkpt lat="44.98348" lon="4.70042">
        <ele>640</ele>
        <time>2018-01-24T14:16:02+01:00</time>
      </trkpt>
      <trkpt lat="44.98348" lon="4.70052">
        <ele>641</ele>
        <time>2018-01-24T14:16:09+01:00</time>
      </trkpt>
      <trkpt lat="44.98346" lon="4.70061">
        <ele>642</ele>
        <time>2018-01-24T14:16:16+01:00</time>
      </trkpt>
      <trkpt lat="44.98342" lon="4.70066">
        <ele>644</ele>
        <time>2018-01-24T14:16:24+01:00</time>
      </trkpt>
      <trkpt lat="44.98334" lon="4.70073">
        <ele>645</ele>
        <time>2018-01-24T14:16:33+01:00</time>
      </trkpt>
      <trkpt lat="44.98329" lon="4.70083">
        <ele>647</ele>
        <time>2018-01-24T14:16:42+01:00</time>
      </trkpt>
      <trkpt lat="44.98324" lon="4.70092">
        <ele>648</ele>
        <time>2018-01-24T14:16:49+01:00</time>
      </trkpt>
      <trkpt lat="44.9832" lon="4.70104">
        <ele>650</ele>
        <time>2018-01-24T14:16:57+01:00</time>
      </trkpt>
      <trkpt lat="44.98316" lon="4.70115">
        <ele>651</ele>
        <time>2018-01-24T14:17:05+01:00</time>
      </trkpt>
      <trkpt lat="44.98314" lon="4.70125">
        <ele>651</ele>
        <time>2018-01-24T14:17:12+01:00</time>
      </trkpt>
      <trkpt lat="44.98312" lon="4.70136">
        <ele>652</ele>
        <time>2018-01-24T14:17:20+01:00</time>
      </trkpt>
      <trkpt lat="44.9831" lon="4.70147">
        <ele>653</ele>
        <time>2018-01-24T14:17:28+01:00</time>
      </trkpt>
      <trkpt lat="44.98309" lon="4.70155">
        <ele>653</ele>
        <time>2018-01-24T14:17:35+01:00</time>
      </trkpt>
      <trkpt lat="44.98307" lon="4.70165">
        <ele>653</ele>
        <time>2018-01-24T14:17:41+01:00</time>
      </trkpt>
      <trkpt lat="44.98302" lon="4.70176">
        <ele>653</ele>
        <time>2018-01-24T14:17:49+01:00</time>
      </trkpt>
      <trkpt lat="44.98296" lon="4.70188">
        <ele>653</ele>
        <time>2018-01-24T14:17:57+01:00</time>
      </trkpt>
      <trkpt lat="44.98291" lon="4.70197">
        <ele>653</ele>
        <time>2018-01-24T14:18:04+01:00</time>
      </trkpt>
      <trkpt lat="44.98287" lon="4.70206">
        <ele>652</ele>
        <time>2018-01-24T14:18:12+01:00</time>
      </trkpt>
      <trkpt lat="44.98286" lon="4.70205">
        <ele>652</ele>
        <time>2018-01-24T14:18:19+01:00</time>
      </trkpt>
      <trkpt lat="44.98284" lon="4.70203">
        <ele>653</ele>
        <time>2018-01-24T14:18:37+01:00</time>
      </trkpt>
      <trkpt lat="44.98285" lon="4.70205">
        <ele>653</ele>
        <time>2018-01-24T14:18:51+01:00</time>
      </trkpt>
      <trkpt lat="44.98286" lon="4.70205">
        <ele>652</ele>
        <time>2018-01-24T14:19:04+01:00</time>
      </trkpt>
      <trkpt lat="44.98286" lon="4.70205">
        <ele>652</ele>
        <time>2018-01-24T14:19:15+01:00</time>
      </trkpt>
      <trkpt lat="44.98284" lon="4.70205">
        <ele>653</ele>
        <time>2018-01-24T14:19:29+01:00</time>
      </trkpt>
      <trkpt lat="44.98285" lon="4.70205">
        <ele>653</ele>
        <time>2018-01-24T14:19:39+01:00</time>
      </trkpt>
      <trkpt lat="44.98284" lon="4.70205">
        <ele>653</ele>
        <time>2018-01-24T14:19:46+01:00</time>
      </trkpt>
      <trkpt lat="44.98284" lon="4.70208">
        <ele>652</ele>
        <time>2018-01-24T14:19:55+01:00</time>
      </trkpt>
      <trkpt lat="44.98284" lon="4.7021">
        <ele>652</ele>
        <time>2018-01-24T14:19:56+01:00</time>
      </trkpt>
      <trkpt lat="44.98286" lon="4.70214">
        <ele>652</ele>
        <time>2018-01-24T14:20:04+01:00</time>
      </trkpt>
      <trkpt lat="44.98286" lon="4.70215">
        <ele>652</ele>
        <time>2018-01-24T14:20:15+01:00</time>
      </trkpt>
      <trkpt lat="44.98284" lon="4.70215">
        <ele>652</ele>
        <time>2018-01-24T14:20:20+01:00</time>
      </trkpt>
      <trkpt lat="44.98279" lon="4.70215">
        <ele>652</ele>
        <time>2018-01-24T14:20:24+01:00</time>
      </trkpt>
      <trkpt lat="44.98267" lon="4.70225">
        <ele>652</ele>
        <time>2018-01-24T14:20:36+01:00</time>
      </trkpt>
      <trkpt lat="44.98258" lon="4.70229">
        <ele>651</ele>
        <time>2018-01-24T14:20:45+01:00</time>
      </trkpt>
      <trkpt lat="44.98253" lon="4.70233">
        <ele>651</ele>
        <time>2018-01-24T14:20:52+01:00</time>
      </trkpt>
      <trkpt lat="44.98251" lon="4.70236">
        <ele>651</ele>
        <time>2018-01-24T14:21:02+01:00</time>
      </trkpt>
      <trkpt lat="44.9825" lon="4.70237">
        <ele>651</ele>
        <time>2018-01-24T14:21:13+01:00</time>
      </trkpt>
      <trkpt lat="44.98242" lon="4.70239">
        <ele>651</ele>
        <time>2018-01-24T14:21:21+01:00</time>
      </trkpt>
      <trkpt lat="44.98234" lon="4.70244">
        <ele>651</ele>
        <time>2018-01-24T14:21:29+01:00</time>
      </trkpt>
      <trkpt lat="44.9823" lon="4.70242">
        <ele>651</ele>
        <time>2018-01-24T14:21:36+01:00</time>
      </trkpt>
      <trkpt lat="44.98219" lon="4.7024">
        <ele>652</ele>
        <time>2018-01-24T14:21:45+01:00</time>
      </trkpt>
      <trkpt lat="44.98216" lon="4.7024">
        <ele>652</ele>
        <time>2018-01-24T14:21:48+01:00</time>
      </trkpt>
      <trkpt lat="44.98211" lon="4.70242">
        <ele>652</ele>
        <time>2018-01-24T14:21:56+01:00</time>
      </trkpt>
      <trkpt lat="44.98209" lon="4.70245">
        <ele>652</ele>
        <time>2018-01-24T14:22:04+01:00</time>
      </trkpt>
      <trkpt lat="44.98209" lon="4.70245">
        <ele>652</ele>
        <time>2018-01-24T14:22:05+01:00</time>
      </trkpt>
      <trkpt lat="44.9821" lon="4.70246">
        <ele>652</ele>
        <time>2018-01-24T14:22:07+01:00</time>
      </trkpt>
      <trkpt lat="44.9821" lon="4.70247">
        <ele>652</ele>
        <time>2018-01-24T14:22:09+01:00</time>
      </trkpt>
      <trkpt lat="44.98209" lon="4.70249">
        <ele>652</ele>
        <time>2018-01-24T14:22:20+01:00</time>
      </trkpt>
      <trkpt lat="44.98204" lon="4.70249">
        <ele>652</ele>
        <time>2018-01-24T14:22:27+01:00</time>
      </trkpt>
      <trkpt lat="44.98193" lon="4.70254">
        <ele>652</ele>
        <time>2018-01-24T14:22:38+01:00</time>
      </trkpt>
      <trkpt lat="44.98184" lon="4.70261">
        <ele>651</ele>
        <time>2018-01-24T14:22:46+01:00</time>
      </trkpt>
      <trkpt lat="44.98171" lon="4.70267">
        <ele>651</ele>
        <time>2018-01-24T14:22:56+01:00</time>
      </trkpt>
      <trkpt lat="44.98159" lon="4.70267">
        <ele>651</ele>
        <time>2018-01-24T14:23:05+01:00</time>
      </trkpt>
      <trkpt lat="44.98148" lon="4.70266">
        <ele>652</ele>
        <time>2018-01-24T14:23:13+01:00</time>
      </trkpt>
      <trkpt lat="44.98135" lon="4.70265">
        <ele>652</ele>
        <time>2018-01-24T14:23:23+01:00</time>
      </trkpt>
      <trkpt lat="44.98124" lon="4.70271">
        <ele>651</ele>
        <time>2018-01-24T14:23:32+01:00</time>
      </trkpt>
      <trkpt lat="44.98116" lon="4.70275">
        <ele>650</ele>
        <time>2018-01-24T14:23:39+01:00</time>
      </trkpt>
      <trkpt lat="44.98102" lon="4.70275">
        <ele>651</ele>
        <time>2018-01-24T14:23:50+01:00</time>
      </trkpt>
      <trkpt lat="44.98097" lon="4.70274">
        <ele>651</ele>
        <time>2018-01-24T14:23:54+01:00</time>
      </trkpt>
      <trkpt lat="44.98084" lon="4.70267">
        <ele>652</ele>
        <time>2018-01-24T14:24:05+01:00</time>
      </trkpt>
      <trkpt lat="44.9808" lon="4.70267">
        <ele>653</ele>
        <time>2018-01-24T14:24:08+01:00</time>
      </trkpt>
      <trkpt lat="44.98074" lon="4.70267">
        <ele>654</ele>
        <time>2018-01-24T14:24:13+01:00</time>
      </trkpt>
      <trkpt lat="44.98064" lon="4.70271">
        <ele>655</ele>
        <time>2018-01-24T14:24:21+01:00</time>
      </trkpt>
      <trkpt lat="44.98055" lon="4.70279">
        <ele>655</ele>
        <time>2018-01-24T14:24:28+01:00</time>
      </trkpt>
      <trkpt lat="44.98046" lon="4.70285">
        <ele>656</ele>
        <time>2018-01-24T14:24:35+01:00</time>
      </trkpt>
      <trkpt lat="44.98044" lon="4.70288">
        <ele>655</ele>
        <time>2018-01-24T14:24:38+01:00</time>
      </trkpt>
      <trkpt lat="44.98041" lon="4.70291">
        <ele>655</ele>
        <time>2018-01-24T14:24:40+01:00</time>
      </trkpt>
      <trkpt lat="44.98038" lon="4.70293">
        <ele>655</ele>
        <time>2018-01-24T14:24:43+01:00</time>
      </trkpt>
      <trkpt lat="44.98037" lon="4.70296">
        <ele>655</ele>
        <time>2018-01-24T14:24:45+01:00</time>
      </trkpt>
      <trkpt lat="44.9803" lon="4.7031">
        <ele>653</ele>
        <time>2018-01-24T14:24:53+01:00</time>
      </trkpt>
      <trkpt lat="44.98024" lon="4.70322">
        <ele>652</ele>
        <time>2018-01-24T14:25:00+01:00</time>
      </trkpt>
      <trkpt lat="44.98019" lon="4.70337">
        <ele>650</ele>
        <time>2018-01-24T14:25:09+01:00</time>
      </trkpt>
      <trkpt lat="44.98016" lon="4.70343">
        <ele>649</ele>
        <time>2018-01-24T14:25:13+01:00</time>
      </trkpt>
      <trkpt lat="44.98006" lon="4.7035">
        <ele>649</ele>
        <time>2018-01-24T14:25:22+01:00</time>
      </trkpt>
      <trkpt lat="44.97995" lon="4.70355">
        <ele>650</ele>
        <time>2018-01-24T14:25:32+01:00</time>
      </trkpt>
      <trkpt lat="44.97988" lon="4.70352">
        <ele>652</ele>
        <time>2018-01-24T14:25:40+01:00</time>
      </trkpt>
      <trkpt lat="44.97981" lon="4.70355">
        <ele>653</ele>
        <time>2018-01-24T14:25:46+01:00</time>
      </trkpt>
      <trkpt lat="44.97977" lon="4.7036">
        <ele>653</ele>
        <time>2018-01-24T14:25:50+01:00</time>
      </trkpt>
      <trkpt lat="44.97966" lon="4.70369">
        <ele>654</ele>
        <time>2018-01-24T14:26:01+01:00</time>
      </trkpt>
      <trkpt lat="44.9796" lon="4.70379">
        <ele>653</ele>
        <time>2018-01-24T14:26:08+01:00</time>
      </trkpt>
      <trkpt lat="44.97952" lon="4.70392">
        <ele>653</ele>
        <time>2018-01-24T14:26:17+01:00</time>
      </trkpt>
      <trkpt lat="44.97945" lon="4.70406">
        <ele>652</ele>
        <time>2018-01-24T14:26:26+01:00</time>
      </trkpt>
      <trkpt lat="44.9794" lon="4.70418">
        <ele>651</ele>
        <time>2018-01-24T14:26:36+01:00</time>
      </trkpt>
      <trkpt lat="44.97936" lon="4.70428">
        <ele>651</ele>
        <time>2018-01-24T14:26:43+01:00</time>
      </trkpt>
      <trkpt lat="44.97933" lon="4.70433">
        <ele>651</ele>
        <time>2018-01-24T14:26:46+01:00</time>
      </trkpt>
      <trkpt lat="44.97931" lon="4.70437">
        <ele>651</ele>
        <time>2018-01-24T14:26:49+01:00</time>
      </trkpt>
      <trkpt lat="44.97929" lon="4.70444">
        <ele>650</ele>
        <time>2018-01-24T14:26:54+01:00</time>
      </trkpt>
      <trkpt lat="44.97923" lon="4.70458">
        <ele>650</ele>
        <time>2018-01-24T14:27:03+01:00</time>
      </trkpt>
      <trkpt lat="44.97914" lon="4.7047">
        <ele>650</ele>
        <time>2018-01-24T14:27:12+01:00</time>
      </trkpt>
      <trkpt lat="44.97906" lon="4.70481">
        <ele>649</ele>
        <time>2018-01-24T14:27:21+01:00</time>
      </trkpt>
      <trkpt lat="44.97899" lon="4.7049">
        <ele>648</ele>
        <time>2018-01-24T14:27:28+01:00</time>
      </trkpt>
      <trkpt lat="44.97893" lon="4.70499">
        <ele>647</ele>
        <time>2018-01-24T14:27:37+01:00</time>
      </trkpt>
      <trkpt lat="44.97885" lon="4.70506">
        <ele>647</ele>
        <time>2018-01-24T14:27:45+01:00</time>
      </trkpt>
      <trkpt lat="44.97878" lon="4.70513">
        <ele>647</ele>
        <time>2018-01-24T14:27:52+01:00</time>
      </trkpt>
      <trkpt lat="44.97865" lon="4.70521">
        <ele>647</ele>
        <time>2018-01-24T14:28:01+01:00</time>
      </trkpt>
      <trkpt lat="44.97851" lon="4.70535">
        <ele>648</ele>
        <time>2018-01-24T14:28:13+01:00</time>
      </trkpt>
      <trkpt lat="44.9785" lon="4.70536">
        <ele>648</ele>
        <time>2018-01-24T14:28:14+01:00</time>
      </trkpt>
      <trkpt lat="44.97836" lon="4.70552">
        <ele>648</ele>
        <time>2018-01-24T14:28:27+01:00</time>
      </trkpt>
      <trkpt lat="44.97828" lon="4.70562">
        <ele>649</ele>
        <time>2018-01-24T14:28:35+01:00</time>
      </trkpt>
      <trkpt lat="44.97819" lon="4.70575">
        <ele>648</ele>
        <time>2018-01-24T14:28:44+01:00</time>
      </trkpt>
      <trkpt lat="44.97812" lon="4.70587">
        <ele>648</ele>
        <time>2018-01-24T14:28:53+01:00</time>
      </trkpt>
      <trkpt lat="44.97806" lon="4.7059">
        <ele>647</ele>
        <time>2018-01-24T14:28:58+01:00</time>
      </trkpt>
      <trkpt lat="44.97802" lon="4.70589">
        <ele>647</ele>
        <time>2018-01-24T14:29:01+01:00</time>
      </trkpt>
      <trkpt lat="44.97795" lon="4.70576">
        <ele>647</ele>
        <time>2018-01-24T14:29:12+01:00</time>
      </trkpt>
      <trkpt lat="44.97793" lon="4.70575">
        <ele>647</ele>
        <time>2018-01-24T14:29:19+01:00</time>
      </trkpt>
      <trkpt lat="44.97792" lon="4.70574">
        <ele>647</ele>
        <time>2018-01-24T14:29:33+01:00</time>
      </trkpt>
      <trkpt lat="44.97793" lon="4.70572">
        <ele>647</ele>
        <time>2018-01-24T14:29:42+01:00</time>
      </trkpt>
      <trkpt lat="44.97792" lon="4.70569">
        <ele>647</ele>
        <time>2018-01-24T14:29:47+01:00</time>
      </trkpt>
      <trkpt lat="44.97786" lon="4.70551">
        <ele>647</ele>
        <time>2018-01-24T14:29:58+01:00</time>
      </trkpt>
      <trkpt lat="44.97781" lon="4.7054">
        <ele>648</ele>
        <time>2018-01-24T14:30:06+01:00</time>
      </trkpt>
      <trkpt lat="44.97776" lon="4.70525">
        <ele>648</ele>
        <time>2018-01-24T14:30:15+01:00</time>
      </trkpt>
      <trkpt lat="44.9777" lon="4.70507">
        <ele>649</ele>
        <time>2018-01-24T14:30:24+01:00</time>
      </trkpt>
      <trkpt lat="44.97766" lon="4.70493">
        <ele>650</ele>
        <time>2018-01-24T14:30:32+01:00</time>
      </trkpt>
      <trkpt lat="44.97761" lon="4.70478">
        <ele>651</ele>
        <time>2018-01-24T14:30:41+01:00</time>
      </trkpt>
      <trkpt lat="44.97756" lon="4.70464">
        <ele>652</ele>
        <time>2018-01-24T14:30:50+01:00</time>
      </trkpt>
      <trkpt lat="44.97753" lon="4.70454">
        <ele>653</ele>
        <time>2018-01-24T14:30:58+01:00</time>
      </trkpt>
      <trkpt lat="44.9775" lon="4.70445">
        <ele>654</ele>
        <time>2018-01-24T14:31:06+01:00</time>
      </trkpt>
      <trkpt lat="44.97748" lon="4.70431">
        <ele>656</ele>
        <time>2018-01-24T14:31:15+01:00</time>
      </trkpt>
      <trkpt lat="44.97748" lon="4.70423">
        <ele>656</ele>
        <time>2018-01-24T14:31:21+01:00</time>
      </trkpt>
      <trkpt lat="44.97747" lon="4.70413">
        <ele>658</ele>
        <time>2018-01-24T14:31:27+01:00</time>
      </trkpt>
      <trkpt lat="44.97746" lon="4.7041">
        <ele>658</ele>
        <time>2018-01-24T14:31:29+01:00</time>
      </trkpt>
      <trkpt lat="44.97743" lon="4.70397">
        <ele>660</ele>
        <time>2018-01-24T14:31:37+01:00</time>
      </trkpt>
      <trkpt lat="44.97739" lon="4.70384">
        <ele>662</ele>
        <time>2018-01-24T14:31:45+01:00</time>
      </trkpt>
      <trkpt lat="44.97735" lon="4.70369">
        <ele>664</ele>
        <time>2018-01-24T14:31:54+01:00</time>
      </trkpt>
      <trkpt lat="44.97732" lon="4.70357">
        <ele>665</ele>
        <time>2018-01-24T14:32:02+01:00</time>
      </trkpt>
      <trkpt lat="44.97728" lon="4.70342">
        <ele>667</ele>
        <time>2018-01-24T14:32:12+01:00</time>
      </trkpt>
      <trkpt lat="44.97723" lon="4.7033">
        <ele>668</ele>
        <time>2018-01-24T14:32:21+01:00</time>
      </trkpt>
      <trkpt lat="44.9772" lon="4.7032">
        <ele>669</ele>
        <time>2018-01-24T14:32:29+01:00</time>
      </trkpt>
      <trkpt lat="44.97719" lon="4.70306">
        <ele>671</ele>
        <time>2018-01-24T14:32:38+01:00</time>
      </trkpt>
      <trkpt lat="44.97719" lon="4.70294">
        <ele>673</ele>
        <time>2018-01-24T14:32:45+01:00</time>
      </trkpt>
      <trkpt lat="44.97717" lon="4.70281">
        <ele>674</ele>
        <time>2018-01-24T14:32:53+01:00</time>
      </trkpt>
      <trkpt lat="44.97711" lon="4.70271">
        <ele>675</ele>
        <time>2018-01-24T14:33:01+01:00</time>
      </trkpt>
      <trkpt lat="44.97704" lon="4.7026">
        <ele>676</ele>
        <time>2018-01-24T14:33:10+01:00</time>
      </trkpt>
      <trkpt lat="44.97697" lon="4.70251">
        <ele>676</ele>
        <time>2018-01-24T14:33:18+01:00</time>
      </trkpt>
      <trkpt lat="44.97691" lon="4.70241">
        <ele>677</ele>
        <time>2018-01-24T14:33:26+01:00</time>
      </trkpt>
      <trkpt lat="44.97686" lon="4.7023">
        <ele>678</ele>
        <time>2018-01-24T14:33:34+01:00</time>
      </trkpt>
      <trkpt lat="44.97682" lon="4.70221">
        <ele>679</ele>
        <time>2018-01-24T14:33:42+01:00</time>
      </trkpt>
      <trkpt lat="44.97677" lon="4.70208">
        <ele>681</ele>
        <time>2018-01-24T14:33:52+01:00</time>
      </trkpt>
      <trkpt lat="44.97672" lon="4.70199">
        <ele>682</ele>
        <time>2018-01-24T14:34:00+01:00</time>
      </trkpt>
      <trkpt lat="44.97667" lon="4.7019">
        <ele>683</ele>
        <time>2018-01-24T14:34:07+01:00</time>
      </trkpt>
      <trkpt lat="44.97662" lon="4.70181">
        <ele>683</ele>
        <time>2018-01-24T14:34:15+01:00</time>
      </trkpt>
      <trkpt lat="44.97659" lon="4.7017">
        <ele>685</ele>
        <time>2018-01-24T14:34:23+01:00</time>
      </trkpt>
      <trkpt lat="44.97656" lon="4.70158">
        <ele>686</ele>
        <time>2018-01-24T14:34:31+01:00</time>
      </trkpt>
      <trkpt lat="44.9765" lon="4.70141">
        <ele>687</ele>
        <time>2018-01-24T14:34:41+01:00</time>
      </trkpt>
      <trkpt lat="44.97649" lon="4.70137">
        <ele>687</ele>
        <time>2018-01-24T14:34:43+01:00</time>
      </trkpt>
      <trkpt lat="44.97643" lon="4.7012">
        <ele>688</ele>
        <time>2018-01-24T14:34:53+01:00</time>
      </trkpt>
      <trkpt lat="44.97639" lon="4.70107">
        <ele>689</ele>
        <time>2018-01-24T14:35:01+01:00</time>
      </trkpt>
      <trkpt lat="44.97638" lon="4.70095">
        <ele>689</ele>
        <time>2018-01-24T14:35:08+01:00</time>
      </trkpt>
      <trkpt lat="44.97637" lon="4.70083">
        <ele>690</ele>
        <time>2018-01-24T14:35:15+01:00</time>
      </trkpt>
      <trkpt lat="44.97638" lon="4.7007">
        <ele>691</ele>
        <time>2018-01-24T14:35:24+01:00</time>
      </trkpt>
      <trkpt lat="44.97638" lon="4.70065">
        <ele>691</ele>
        <time>2018-01-24T14:35:27+01:00</time>
      </trkpt>
      <trkpt lat="44.9764" lon="4.70058">
        <ele>692</ele>
        <time>2018-01-24T14:35:32+01:00</time>
      </trkpt>
      <trkpt lat="44.97639" lon="4.7004">
        <ele>693</ele>
        <time>2018-01-24T14:35:44+01:00</time>
      </trkpt>
      <trkpt lat="44.97637" lon="4.70028">
        <ele>693</ele>
        <time>2018-01-24T14:35:52+01:00</time>
      </trkpt>
      <trkpt lat="44.97635" lon="4.70023">
        <ele>693</ele>
        <time>2018-01-24T14:35:56+01:00</time>
      </trkpt>
      <trkpt lat="44.9763" lon="4.70011">
        <ele>692</ele>
        <time>2018-01-24T14:36:04+01:00</time>
      </trkpt>
      <trkpt lat="44.97622" lon="4.70001">
        <ele>691</ele>
        <time>2018-01-24T14:36:13+01:00</time>
      </trkpt>
      <trkpt lat="44.97624" lon="4.69992">
        <ele>692</ele>
        <time>2018-01-24T14:36:22+01:00</time>
      </trkpt>
      <trkpt lat="44.97625" lon="4.69994">
        <ele>692</ele>
        <time>2018-01-24T14:36:34+01:00</time>
      </trkpt>
      <trkpt lat="44.97626" lon="4.69992">
        <ele>693</ele>
        <time>2018-01-24T14:36:48+01:00</time>
      </trkpt>
      <trkpt lat="44.97618" lon="4.69983">
        <ele>692</ele>
        <time>2018-01-24T14:36:56+01:00</time>
      </trkpt>
      <trkpt lat="44.97613" lon="4.69969">
        <ele>692</ele>
        <time>2018-01-24T14:37:04+01:00</time>
      </trkpt>
      <trkpt lat="44.97613" lon="4.69968">
        <ele>692</ele>
        <time>2018-01-24T14:37:05+01:00</time>
      </trkpt>
      <trkpt lat="44.9761" lon="4.6995">
        <ele>692</ele>
        <time>2018-01-24T14:37:15+01:00</time>
      </trkpt>
      <trkpt lat="44.97606" lon="4.69938">
        <ele>693</ele>
        <time>2018-01-24T14:37:23+01:00</time>
      </trkpt>
      <trkpt lat="44.97604" lon="4.69923">
        <ele>694</ele>
        <time>2018-01-24T14:37:32+01:00</time>
      </trkpt>
      <trkpt lat="44.97602" lon="4.69908">
        <ele>695</ele>
        <time>2018-01-24T14:37:40+01:00</time>
      </trkpt>
      <trkpt lat="44.97598" lon="4.69893">
        <ele>695</ele>
        <time>2018-01-24T14:37:50+01:00</time>
      </trkpt>
      <trkpt lat="44.97594" lon="4.69879">
        <ele>696</ele>
        <time>2018-01-24T14:37:59+01:00</time>
      </trkpt>
      <trkpt lat="44.97592" lon="4.69867">
        <ele>697</ele>
        <time>2018-01-24T14:38:07+01:00</time>
      </trkpt>
      <trkpt lat="44.9759" lon="4.69854">
        <ele>699</ele>
        <time>2018-01-24T14:38:15+01:00</time>
      </trkpt>
      <trkpt lat="44.9759" lon="4.69838">
        <ele>701</ele>
        <time>2018-01-24T14:38:25+01:00</time>
      </trkpt>
      <trkpt lat="44.97587" lon="4.69822">
        <ele>702</ele>
        <time>2018-01-24T14:38:35+01:00</time>
      </trkpt>
      <trkpt lat="44.97586" lon="4.6981">
        <ele>704</ele>
        <time>2018-01-24T14:38:42+01:00</time>
      </trkpt>
      <trkpt lat="44.97584" lon="4.69797">
        <ele>705</ele>
        <time>2018-01-24T14:38:50+01:00</time>
      </trkpt>
      <trkpt lat="44.97583" lon="4.69784">
        <ele>706</ele>
        <time>2018-01-24T14:38:58+01:00</time>
      </trkpt>
      <trkpt lat="44.97582" lon="4.69773">
        <ele>708</ele>
        <time>2018-01-24T14:39:06+01:00</time>
      </trkpt>
      <trkpt lat="44.97581" lon="4.6976">
        <ele>709</ele>
        <time>2018-01-24T14:39:13+01:00</time>
      </trkpt>
      <trkpt lat="44.9758" lon="4.69743">
        <ele>711</ele>
        <time>2018-01-24T14:39:22+01:00</time>
      </trkpt>
      <trkpt lat="44.97577" lon="4.6973">
        <ele>711</ele>
        <time>2018-01-24T14:39:31+01:00</time>
      </trkpt>
      <trkpt lat="44.97574" lon="4.69718">
        <ele>712</ele>
        <time>2018-01-24T14:39:39+01:00</time>
      </trkpt>
      <trkpt lat="44.97574" lon="4.69712">
        <ele>712</ele>
        <time>2018-01-24T14:39:46+01:00</time>
      </trkpt>
      <trkpt lat="44.97572" lon="4.69701">
        <ele>713</ele>
        <time>2018-01-24T14:39:55+01:00</time>
      </trkpt>
      <trkpt lat="44.9757" lon="4.69687">
        <ele>714</ele>
        <time>2018-01-24T14:40:04+01:00</time>
      </trkpt>
      <trkpt lat="44.97568" lon="4.69672">
        <ele>715</ele>
        <time>2018-01-24T14:40:12+01:00</time>
      </trkpt>
      <trkpt lat="44.97565" lon="4.69654">
        <ele>715</ele>
        <time>2018-01-24T14:40:22+01:00</time>
      </trkpt>
      <trkpt lat="44.97566" lon="4.6965">
        <ele>715</ele>
        <time>2018-01-24T14:40:30+01:00</time>
      </trkpt>
      <trkpt lat="44.97566" lon="4.69645">
        <ele>715</ele>
        <time>2018-01-24T14:40:37+01:00</time>
      </trkpt>
      <trkpt lat="44.97564" lon="4.69631">
        <ele>715</ele>
        <time>2018-01-24T14:40:45+01:00</time>
      </trkpt>
      <trkpt lat="44.97564" lon="4.6962">
        <ele>715</ele>
        <time>2018-01-24T14:40:50+01:00</time>
      </trkpt>
      <trkpt lat="44.97563" lon="4.69597">
        <ele>715</ele>
        <time>2018-01-24T14:41:01+01:00</time>
      </trkpt>
      <trkpt lat="44.97561" lon="4.69577">
        <ele>714</ele>
        <time>2018-01-24T14:41:11+01:00</time>
      </trkpt>
      <trkpt lat="44.97557" lon="4.69558">
        <ele>714</ele>
        <time>2018-01-24T14:41:21+01:00</time>
      </trkpt>
      <trkpt lat="44.97553" lon="4.69541">
        <ele>713</ele>
        <time>2018-01-24T14:41:31+01:00</time>
      </trkpt>
      <trkpt lat="44.97546" lon="4.69522">
        <ele>712</ele>
        <time>2018-01-24T14:41:42+01:00</time>
      </trkpt>
      <trkpt lat="44.97539" lon="4.69505">
        <ele>711</ele>
        <time>2018-01-24T14:41:52+01:00</time>
      </trkpt>
      <trkpt lat="44.97536" lon="4.69486">
        <ele>711</ele>
        <time>2018-01-24T14:42:02+01:00</time>
      </trkpt>
      <trkpt lat="44.97538" lon="4.69469">
        <ele>711</ele>
        <time>2018-01-24T14:42:12+01:00</time>
      </trkpt>
      <trkpt lat="44.97535" lon="4.69453">
        <ele>711</ele>
        <time>2018-01-24T14:42:21+01:00</time>
      </trkpt>
      <trkpt lat="44.97522" lon="4.69445">
        <ele>711</ele>
        <time>2018-01-24T14:42:31+01:00</time>
      </trkpt>
      <trkpt lat="44.97506" lon="4.69437">
        <ele>710</ele>
        <time>2018-01-24T14:42:44+01:00</time>
      </trkpt>
      <trkpt lat="44.97492" lon="4.69428">
        <ele>711</ele>
        <time>2018-01-24T14:42:55+01:00</time>
      </trkpt>
      <trkpt lat="44.97479" lon="4.6942">
        <ele>711</ele>
        <time>2018-01-24T14:43:06+01:00</time>
      </trkpt>
      <trkpt lat="44.97466" lon="4.69412">
        <ele>711</ele>
        <time>2018-01-24T14:43:17+01:00</time>
      </trkpt>
      <trkpt lat="44.97453" lon="4.69404">
        <ele>711</ele>
        <time>2018-01-24T14:43:28+01:00</time>
      </trkpt>
      <trkpt lat="44.97439" lon="4.69396">
        <ele>712</ele>
        <time>2018-01-24T14:43:39+01:00</time>
      </trkpt>
      <trkpt lat="44.97428" lon="4.6939">
        <ele>712</ele>
        <time>2018-01-24T14:43:49+01:00</time>
      </trkpt>
      <trkpt lat="44.97415" lon="4.69381">
        <ele>712</ele>
        <time>2018-01-24T14:44:00+01:00</time>
      </trkpt>
      <trkpt lat="44.97406" lon="4.69372">
        <ele>712</ele>
        <time>2018-01-24T14:44:10+01:00</time>
      </trkpt>
      <trkpt lat="44.974" lon="4.69366">
        <ele>711</ele>
        <time>2018-01-24T14:44:17+01:00</time>
      </trkpt>
      <trkpt lat="44.97392" lon="4.69355">
        <ele>712</ele>
        <time>2018-01-24T14:44:26+01:00</time>
      </trkpt>
      <trkpt lat="44.97385" lon="4.69339">
        <ele>712</ele>
        <time>2018-01-24T14:44:36+01:00</time>
      </trkpt>
      <trkpt lat="44.97383" lon="4.69324">
        <ele>713</ele>
        <time>2018-01-24T14:44:45+01:00</time>
      </trkpt>
      <trkpt lat="44.97382" lon="4.69323">
        <ele>713</ele>
        <time>2018-01-24T14:44:46+01:00</time>
      </trkpt>
      <trkpt lat="44.97381" lon="4.69308">
        <ele>714</ele>
        <time>2018-01-24T14:44:55+01:00</time>
      </trkpt>
      <trkpt lat="44.97381" lon="4.69306">
        <ele>714</ele>
        <time>2018-01-24T14:44:56+01:00</time>
      </trkpt>
      <trkpt lat="44.97378" lon="4.69294">
        <ele>715</ele>
        <time>2018-01-24T14:45:05+01:00</time>
      </trkpt>
      <trkpt lat="44.97375" lon="4.69283">
        <ele>715</ele>
        <time>2018-01-24T14:45:13+01:00</time>
      </trkpt>
      <trkpt lat="44.97372" lon="4.69272">
        <ele>716</ele>
        <time>2018-01-24T14:45:20+01:00</time>
      </trkpt>
      <trkpt lat="44.97372" lon="4.69271">
        <ele>716</ele>
        <time>2018-01-24T14:45:21+01:00</time>
      </trkpt>
      <trkpt lat="44.97361" lon="4.69261">
        <ele>716</ele>
        <time>2018-01-24T14:45:30+01:00</time>
      </trkpt>
      <trkpt lat="44.9735" lon="4.69255">
        <ele>717</ele>
        <time>2018-01-24T14:45:39+01:00</time>
      </trkpt>
      <trkpt lat="44.97337" lon="4.69246">
        <ele>717</ele>
        <time>2018-01-24T14:45:50+01:00</time>
      </trkpt>
      <trkpt lat="44.97325" lon="4.69242">
        <ele>715</ele>
        <time>2018-01-24T14:45:59+01:00</time>
      </trkpt>
      <trkpt lat="44.9731" lon="4.6924">
        <ele>714</ele>
        <time>2018-01-24T14:46:10+01:00</time>
      </trkpt>
      <trkpt lat="44.97304" lon="4.69239">
        <ele>713</ele>
        <time>2018-01-24T14:46:14+01:00</time>
      </trkpt>
      <trkpt lat="44.97289" lon="4.6924">
        <ele>712</ele>
        <time>2018-01-24T14:46:25+01:00</time>
      </trkpt>
      <trkpt lat="44.97273" lon="4.69241">
        <ele>711</ele>
        <time>2018-01-24T14:46:37+01:00</time>
      </trkpt>
      <trkpt lat="44.97256" lon="4.69245">
        <ele>709</ele>
        <time>2018-01-24T14:46:50+01:00</time>
      </trkpt>
      <trkpt lat="44.9724" lon="4.6925">
        <ele>709</ele>
        <time>2018-01-24T14:47:02+01:00</time>
      </trkpt>
      <trkpt lat="44.97229" lon="4.69256">
        <ele>707</ele>
        <time>2018-01-24T14:47:11+01:00</time>
      </trkpt>
      <trkpt lat="44.97218" lon="4.69259">
        <ele>707</ele>
        <time>2018-01-24T14:47:20+01:00</time>
      </trkpt>
      <trkpt lat="44.97204" lon="4.69257">
        <ele>706</ele>
        <time>2018-01-24T14:47:31+01:00</time>
      </trkpt>
      <trkpt lat="44.97188" lon="4.6925">
        <ele>706</ele>
        <time>2018-01-24T14:47:43+01:00</time>
      </trkpt>
      <trkpt lat="44.97173" lon="4.69245">
        <ele>705</ele>
        <time>2018-01-24T14:47:55+01:00</time>
      </trkpt>
      <trkpt lat="44.97163" lon="4.69242">
        <ele>705</ele>
        <time>2018-01-24T14:48:04+01:00</time>
      </trkpt>
      <trkpt lat="44.9716" lon="4.69242">
        <ele>705</ele>
        <time>2018-01-24T14:48:11+01:00</time>
      </trkpt>
      <trkpt lat="44.97156" lon="4.6924">
        <ele>705</ele>
        <time>2018-01-24T14:48:22+01:00</time>
      </trkpt>
      <trkpt lat="44.9714" lon="4.69226">
        <ele>704</ele>
        <time>2018-01-24T14:48:35+01:00</time>
      </trkpt>
      <trkpt lat="44.97128" lon="4.69216">
        <ele>703</ele>
        <time>2018-01-24T14:48:46+01:00</time>
      </trkpt>
      <trkpt lat="44.97112" lon="4.69204">
        <ele>702</ele>
        <time>2018-01-24T14:48:59+01:00</time>
      </trkpt>
      <trkpt lat="44.97099" lon="4.69195">
        <ele>701</ele>
        <time>2018-01-24T14:49:10+01:00</time>
      </trkpt>
      <trkpt lat="44.97084" lon="4.69186">
        <ele>700</ele>
        <time>2018-01-24T14:49:22+01:00</time>
      </trkpt>
      <trkpt lat="44.97074" lon="4.69182">
        <ele>700</ele>
        <time>2018-01-24T14:49:30+01:00</time>
      </trkpt>
      <trkpt lat="44.97058" lon="4.69181">
        <ele>700</ele>
        <time>2018-01-24T14:49:42+01:00</time>
      </trkpt>
      <trkpt lat="44.97042" lon="4.69178">
        <ele>700</ele>
        <time>2018-01-24T14:49:54+01:00</time>
      </trkpt>
      <trkpt lat="44.97039" lon="4.69177">
        <ele>700</ele>
        <time>2018-01-24T14:49:57+01:00</time>
      </trkpt>
      <trkpt lat="44.97034" lon="4.69168">
        <ele>700</ele>
        <time>2018-01-24T14:50:03+01:00</time>
      </trkpt>
      <trkpt lat="44.97034" lon="4.69148">
        <ele>699</ele>
        <time>2018-01-24T14:50:14+01:00</time>
      </trkpt>
      <trkpt lat="44.97033" lon="4.69132">
        <ele>698</ele>
        <time>2018-01-24T14:50:23+01:00</time>
      </trkpt>
      <trkpt lat="44.97032" lon="4.69117">
        <ele>697</ele>
        <time>2018-01-24T14:50:31+01:00</time>
      </trkpt>
      <trkpt lat="44.97031" lon="4.69115">
        <ele>697</ele>
        <time>2018-01-24T14:50:32+01:00</time>
      </trkpt>
      <trkpt lat="44.97035" lon="4.69095">
        <ele>696</ele>
        <time>2018-01-24T14:50:42+01:00</time>
      </trkpt>
      <trkpt lat="44.97044" lon="4.69076">
        <ele>695</ele>
        <time>2018-01-24T14:50:54+01:00</time>
      </trkpt>
      <trkpt lat="44.97056" lon="4.69059">
        <ele>694</ele>
        <time>2018-01-24T14:51:06+01:00</time>
      </trkpt>
      <trkpt lat="44.97059" lon="4.69054">
        <ele>694</ele>
        <time>2018-01-24T14:51:10+01:00</time>
      </trkpt>
      <trkpt lat="44.97068" lon="4.69037">
        <ele>693</ele>
        <time>2018-01-24T14:51:21+01:00</time>
      </trkpt>
      <trkpt lat="44.9708" lon="4.6902">
        <ele>691</ele>
        <time>2018-01-24T14:51:34+01:00</time>
      </trkpt>
      <trkpt lat="44.97089" lon="4.69005">
        <ele>690</ele>
        <time>2018-01-24T14:51:44+01:00</time>
      </trkpt>
      <trkpt lat="44.97098" lon="4.68991">
        <ele>687</ele>
        <time>2018-01-24T14:51:54+01:00</time>
      </trkpt>
      <trkpt lat="44.97108" lon="4.68983">
        <ele>685</ele>
        <time>2018-01-24T14:52:03+01:00</time>
      </trkpt>
      <trkpt lat="44.9712" lon="4.6898">
        <ele>683</ele>
        <time>2018-01-24T14:52:12+01:00</time>
      </trkpt>
      <trkpt lat="44.97131" lon="4.68982">
        <ele>683</ele>
        <time>2018-01-24T14:52:21+01:00</time>
      </trkpt>
      <trkpt lat="44.97146" lon="4.68986">
        <ele>682</ele>
        <time>2018-01-24T14:52:33+01:00</time>
      </trkpt>
      <trkpt lat="44.97159" lon="4.68991">
        <ele>682</ele>
        <time>2018-01-24T14:52:43+01:00</time>
      </trkpt>
      <trkpt lat="44.97173" lon="4.68995">
        <ele>682</ele>
        <time>2018-01-24T14:52:54+01:00</time>
      </trkpt>
      <trkpt lat="44.97178" lon="4.68996">
        <ele>682</ele>
        <time>2018-01-24T14:53:00+01:00</time>
      </trkpt>
      <trkpt lat="44.97187" lon="4.69006">
        <ele>683</ele>
        <time>2018-01-24T14:53:09+01:00</time>
      </trkpt>
      <trkpt lat="44.97195" lon="4.69016">
        <ele>684</ele>
        <time>2018-01-24T14:53:17+01:00</time>
      </trkpt>
      <trkpt lat="44.97197" lon="4.69019">
        <ele>685</ele>
        <time>2018-01-24T14:53:19+01:00</time>
      </trkpt>
      <trkpt lat="44.97206" lon="4.69028">
        <ele>686</ele>
        <time>2018-01-24T14:53:28+01:00</time>
      </trkpt>
      <trkpt lat="44.97214" lon="4.69031">
        <ele>686</ele>
        <time>2018-01-24T14:53:37+01:00</time>
      </trkpt>
      <trkpt lat="44.97219" lon="4.69031">
        <ele>686</ele>
        <time>2018-01-24T14:53:45+01:00</time>
      </trkpt>
      <trkpt lat="44.97224" lon="4.69033">
        <ele>686</ele>
        <time>2018-01-24T14:53:49+01:00</time>
      </trkpt>
      <trkpt lat="44.97237" lon="4.69035">
        <ele>686</ele>
        <time>2018-01-24T14:53:59+01:00</time>
      </trkpt>
      <trkpt lat="44.97246" lon="4.69033">
        <ele>686</ele>
        <time>2018-01-24T14:54:06+01:00</time>
      </trkpt>
      <trkpt lat="44.97257" lon="4.69029">
        <ele>685</ele>
        <time>2018-01-24T14:54:14+01:00</time>
      </trkpt>
      <trkpt lat="44.97268" lon="4.69019">
        <ele>684</ele>
        <time>2018-01-24T14:54:24+01:00</time>
      </trkpt>
      <trkpt lat="44.97277" lon="4.69009">
        <ele>683</ele>
        <time>2018-01-24T14:54:33+01:00</time>
      </trkpt>
      <trkpt lat="44.97286" lon="4.69002">
        <ele>683</ele>
        <time>2018-01-24T14:54:41+01:00</time>
      </trkpt>
      <trkpt lat="44.97295" lon="4.68991">
        <ele>683</ele>
        <time>2018-01-24T14:54:50+01:00</time>
      </trkpt>
      <trkpt lat="44.97303" lon="4.68981">
        <ele>682</ele>
        <time>2018-01-24T14:54:58+01:00</time>
      </trkpt>
      <trkpt lat="44.97304" lon="4.68976">
        <ele>681</ele>
        <time>2018-01-24T14:55:07+01:00</time>
      </trkpt>
      <trkpt lat="44.97309" lon="4.68968">
        <ele>681</ele>
        <time>2018-01-24T14:55:16+01:00</time>
      </trkpt>
      <trkpt lat="44.97312" lon="4.68964">
        <ele>681</ele>
        <time>2018-01-24T14:55:24+01:00</time>
      </trkpt>
      <trkpt lat="44.97322" lon="4.68954">
        <ele>680</ele>
        <time>2018-01-24T14:55:33+01:00</time>
      </trkpt>
      <trkpt lat="44.9733" lon="4.68946">
        <ele>680</ele>
        <time>2018-01-24T14:55:42+01:00</time>
      </trkpt>
      <trkpt lat="44.97338" lon="4.6894">
        <ele>679</ele>
        <time>2018-01-24T14:55:49+01:00</time>
      </trkpt>
      <trkpt lat="44.9735" lon="4.68932">
        <ele>677</ele>
        <time>2018-01-24T14:55:58+01:00</time>
      </trkpt>
      <trkpt lat="44.97358" lon="4.68925">
        <ele>676</ele>
        <time>2018-01-24T14:56:06+01:00</time>
      </trkpt>
      <trkpt lat="44.9736" lon="4.68924">
        <ele>676</ele>
        <time>2018-01-24T14:56:07+01:00</time>
      </trkpt>
      <trkpt lat="44.97361" lon="4.68922">
        <ele>675</ele>
        <time>2018-01-24T14:56:09+01:00</time>
      </trkpt>
      <trkpt lat="44.9737" lon="4.6892">
        <ele>675</ele>
        <time>2018-01-24T14:56:16+01:00</time>
      </trkpt>
      <trkpt lat="44.97378" lon="4.68917">
        <ele>674</ele>
        <time>2018-01-24T14:56:23+01:00</time>
      </trkpt>
      <trkpt lat="44.97382" lon="4.68913">
        <ele>673</ele>
        <time>2018-01-24T14:56:29+01:00</time>
      </trkpt>
      <trkpt lat="44.97383" lon="4.68912">
        <ele>673</ele>
        <time>2018-01-24T14:56:31+01:00</time>
      </trkpt>
      <trkpt lat="44.97389" lon="4.68908">
        <ele>672</ele>
        <time>2018-01-24T14:56:34+01:00</time>
      </trkpt>
      <trkpt lat="44.97392" lon="4.68905">
        <ele>671</ele>
        <time>2018-01-24T14:56:36+01:00</time>
      </trkpt>
      <trkpt lat="44.97387" lon="4.68893">
        <ele>669</ele>
        <time>2018-01-24T14:56:43+01:00</time>
      </trkpt>
      <trkpt lat="44.97385" lon="4.68892">
        <ele>669</ele>
        <time>2018-01-24T14:56:45+01:00</time>
      </trkpt>
      <trkpt lat="44.97372" lon="4.68888">
        <ele>668</ele>
        <time>2018-01-24T14:56:54+01:00</time>
      </trkpt>
      <trkpt lat="44.97361" lon="4.68885">
        <ele>668</ele>
        <time>2018-01-24T14:57:03+01:00</time>
      </trkpt>
      <trkpt lat="44.97347" lon="4.68879">
        <ele>668</ele>
        <time>2018-01-24T14:57:14+01:00</time>
      </trkpt>
      <trkpt lat="44.97335" lon="4.68874">
        <ele>667</ele>
        <time>2018-01-24T14:57:24+01:00</time>
      </trkpt>
      <trkpt lat="44.97333" lon="4.68873">
        <ele>667</ele>
        <time>2018-01-24T14:57:26+01:00</time>
      </trkpt>
      <trkpt lat="44.97323" lon="4.68869">
        <ele>666</ele>
        <time>2018-01-24T14:57:34+01:00</time>
      </trkpt>
      <trkpt lat="44.97323" lon="4.68874">
        <ele>667</ele>
        <time>2018-01-24T14:57:41+01:00</time>
      </trkpt>
      <trkpt lat="44.97323" lon="4.68868">
        <ele>666</ele>
        <time>2018-01-24T14:57:48+01:00</time>
      </trkpt>
      <trkpt lat="44.97317" lon="4.68865">
        <ele>665</ele>
        <time>2018-01-24T14:57:55+01:00</time>
      </trkpt>
      <trkpt lat="44.97304" lon="4.68856">
        <ele>663</ele>
        <time>2018-01-24T14:58:05+01:00</time>
      </trkpt>
      <trkpt lat="44.97295" lon="4.6885">
        <ele>662</ele>
        <time>2018-01-24T14:58:13+01:00</time>
      </trkpt>
      <trkpt lat="44.97284" lon="4.68846">
        <ele>661</ele>
        <time>2018-01-24T14:58:22+01:00</time>
      </trkpt>
      <trkpt lat="44.97273" lon="4.68843">
        <ele>660</ele>
        <time>2018-01-24T14:58:30+01:00</time>
      </trkpt>
      <trkpt lat="44.97259" lon="4.68843">
        <ele>660</ele>
        <time>2018-01-24T14:58:40+01:00</time>
      </trkpt>
      <trkpt lat="44.97249" lon="4.68841">
        <ele>660</ele>
        <time>2018-01-24T14:58:49+01:00</time>
      </trkpt>
      <trkpt lat="44.97243" lon="4.68836">
        <ele>659</ele>
        <time>2018-01-24T14:58:56+01:00</time>
      </trkpt>
      <trkpt lat="44.97241" lon="4.68836">
        <ele>658</ele>
        <time>2018-01-24T14:59:03+01:00</time>
      </trkpt>
      <trkpt lat="44.9724" lon="4.68839">
        <ele>659</ele>
        <time>2018-01-24T14:59:10+01:00</time>
      </trkpt>
      <trkpt lat="44.97238" lon="4.68844">
        <ele>659</ele>
        <time>2018-01-24T14:59:17+01:00</time>
      </trkpt>
      <trkpt lat="44.97238" lon="4.68846">
        <ele>659</ele>
        <time>2018-01-24T14:59:24+01:00</time>
      </trkpt>
      <trkpt lat="44.97239" lon="4.68844">
        <ele>659</ele>
        <time>2018-01-24T14:59:30+01:00</time>
      </trkpt>
      <trkpt lat="44.97245" lon="4.68833">
        <ele>658</ele>
        <time>2018-01-24T14:59:37+01:00</time>
      </trkpt>
      <trkpt lat="44.97239" lon="4.68829">
        <ele>657</ele>
        <time>2018-01-24T14:59:41+01:00</time>
      </trkpt>
      <trkpt lat="44.97235" lon="4.68817">
        <ele>654</ele>
        <time>2018-01-24T14:59:49+01:00</time>
      </trkpt>
      <trkpt lat="44.97238" lon="4.68812">
        <ele>653</ele>
        <time>2018-01-24T14:59:54+01:00</time>
      </trkpt>
      <trkpt lat="44.9724" lon="4.6881">
        <ele>653</ele>
        <time>2018-01-24T14:59:58+01:00</time>
      </trkpt>
      <trkpt lat="44.97243" lon="4.68809">
        <ele>653</ele>
        <time>2018-01-24T15:00:07+01:00</time>
      </trkpt>
      <trkpt lat="44.97247" lon="4.6881">
        <ele>654</ele>
        <time>2018-01-24T15:00:16+01:00</time>
      </trkpt>
      <trkpt lat="44.97251" lon="4.68808">
        <ele>653</ele>
        <time>2018-01-24T15:00:24+01:00</time>
      </trkpt>
      <trkpt lat="44.97257" lon="4.68807">
        <ele>653</ele>
        <time>2018-01-24T15:00:30+01:00</time>
      </trkpt>
      <trkpt lat="44.97274" lon="4.68805">
        <ele>653</ele>
        <time>2018-01-24T15:00:38+01:00</time>
      </trkpt>
      <trkpt lat="44.97282" lon="4.68805">
        <ele>653</ele>
        <time>2018-01-24T15:00:42+01:00</time>
      </trkpt>
      <trkpt lat="44.97289" lon="4.68805">
        <ele>653</ele>
        <time>2018-01-24T15:00:49+01:00</time>
      </trkpt>
      <trkpt lat="44.97294" lon="4.68804">
        <ele>653</ele>
        <time>2018-01-24T15:00:57+01:00</time>
      </trkpt>
      <trkpt lat="44.97299" lon="4.68802">
        <ele>652</ele>
        <time>2018-01-24T15:01:01+01:00</time>
      </trkpt>
      <trkpt lat="44.97312" lon="4.688">
        <ele>652</ele>
        <time>2018-01-24T15:01:10+01:00</time>
      </trkpt>
      <trkpt lat="44.97321" lon="4.68801">
        <ele>652</ele>
        <time>2018-01-24T15:01:18+01:00</time>
      </trkpt>
      <trkpt lat="44.97329" lon="4.688">
        <ele>652</ele>
        <time>2018-01-24T15:01:26+01:00</time>
      </trkpt>
      <trkpt lat="44.9734" lon="4.68797">
        <ele>650</ele>
        <time>2018-01-24T15:01:35+01:00</time>
      </trkpt>
      <trkpt lat="44.97346" lon="4.68796">
        <ele>649</ele>
        <time>2018-01-24T15:01:43+01:00</time>
      </trkpt>
      <trkpt lat="44.97354" lon="4.68794">
        <ele>648</ele>
        <time>2018-01-24T15:01:51+01:00</time>
      </trkpt>
      <trkpt lat="44.97363" lon="4.6879">
        <ele>646</ele>
        <time>2018-01-24T15:01:57+01:00</time>
      </trkpt>
      <trkpt lat="44.97375" lon="4.68788">
        <ele>644</ele>
        <time>2018-01-24T15:02:07+01:00</time>
      </trkpt>
      <trkpt lat="44.97384" lon="4.68787">
        <ele>643</ele>
        <time>2018-01-24T15:02:16+01:00</time>
      </trkpt>
      <trkpt lat="44.97389" lon="4.68785">
        <ele>642</ele>
        <time>2018-01-24T15:02:22+01:00</time>
      </trkpt>
      <trkpt lat="44.97399" lon="4.68782">
        <ele>640</ele>
        <time>2018-01-24T15:02:31+01:00</time>
      </trkpt>
      <trkpt lat="44.97409" lon="4.68781">
        <ele>639</ele>
        <time>2018-01-24T15:02:39+01:00</time>
      </trkpt>
      <trkpt lat="44.97419" lon="4.6878">
        <ele>638</ele>
        <time>2018-01-24T15:02:47+01:00</time>
      </trkpt>
      <trkpt lat="44.97425" lon="4.68779">
        <ele>637</ele>
        <time>2018-01-24T15:02:53+01:00</time>
      </trkpt>
      <trkpt lat="44.97434" lon="4.68778">
        <ele>635</ele>
        <time>2018-01-24T15:03:00+01:00</time>
      </trkpt>
      <trkpt lat="44.97441" lon="4.68776">
        <ele>634</ele>
        <time>2018-01-24T15:03:06+01:00</time>
      </trkpt>
      <trkpt lat="44.97448" lon="4.68778">
        <ele>633</ele>
        <time>2018-01-24T15:03:12+01:00</time>
      </trkpt>
      <trkpt lat="44.97455" lon="4.68778">
        <ele>633</ele>
        <time>2018-01-24T15:03:18+01:00</time>
      </trkpt>
      <trkpt lat="44.97467" lon="4.68777">
        <ele>631</ele>
        <time>2018-01-24T15:03:29+01:00</time>
      </trkpt>
      <trkpt lat="44.97476" lon="4.68776">
        <ele>629</ele>
        <time>2018-01-24T15:03:36+01:00</time>
      </trkpt>
      <trkpt lat="44.97484" lon="4.68777">
        <ele>628</ele>
        <time>2018-01-24T15:03:43+01:00</time>
      </trkpt>
      <trkpt lat="44.97493" lon="4.68777">
        <ele>627</ele>
        <time>2018-01-24T15:03:51+01:00</time>
      </trkpt>
      <trkpt lat="44.97501" lon="4.68777">
        <ele>626</ele>
        <time>2018-01-24T15:03:58+01:00</time>
      </trkpt>
      <trkpt lat="44.97507" lon="4.68778">
        <ele>625</ele>
        <time>2018-01-24T15:04:03+01:00</time>
      </trkpt>
      <trkpt lat="44.97517" lon="4.68782">
        <ele>624</ele>
        <time>2018-01-24T15:04:10+01:00</time>
      </trkpt>
      <trkpt lat="44.97525" lon="4.68784">
        <ele>623</ele>
        <time>2018-01-24T15:04:17+01:00</time>
      </trkpt>
      <trkpt lat="44.97536" lon="4.68784">
        <ele>620</ele>
        <time>2018-01-24T15:04:25+01:00</time>
      </trkpt>
      <trkpt lat="44.97546" lon="4.68787">
        <ele>619</ele>
        <time>2018-01-24T15:04:34+01:00</time>
      </trkpt>
      <trkpt lat="44.9755" lon="4.68788">
        <ele>618</ele>
        <time>2018-01-24T15:04:45+01:00</time>
      </trkpt>
      <trkpt lat="44.97551" lon="4.68785">
        <ele>617</ele>
        <time>2018-01-24T15:04:57+01:00</time>
      </trkpt>
      <trkpt lat="44.97554" lon="4.6878">
        <ele>615</ele>
        <time>2018-01-24T15:05:07+01:00</time>
      </trkpt>
      <trkpt lat="44.97552" lon="4.68777">
        <ele>614</ele>
        <time>2018-01-24T15:05:19+01:00</time>
      </trkpt>
      <trkpt lat="44.97557" lon="4.68779">
        <ele>614</ele>
        <time>2018-01-24T15:05:40+01:00</time>
      </trkpt>
      <trkpt lat="44.97558" lon="4.6878">
        <ele>614</ele>
        <time>2018-01-24T15:05:51+01:00</time>
      </trkpt>
      <trkpt lat="44.97562" lon="4.68777">
        <ele>612</ele>
        <time>2018-01-24T15:06:06+01:00</time>
      </trkpt>
      <trkpt lat="44.97561" lon="4.68779">
        <ele>613</ele>
        <time>2018-01-24T15:06:22+01:00</time>
      </trkpt>
      <trkpt lat="44.97562" lon="4.68781">
        <ele>613</ele>
        <time>2018-01-24T15:06:34+01:00</time>
      </trkpt>
      <trkpt lat="44.97566" lon="4.68784">
        <ele>613</ele>
        <time>2018-01-24T15:06:42+01:00</time>
      </trkpt>
      <trkpt lat="44.97571" lon="4.68787">
        <ele>613</ele>
        <time>2018-01-24T15:06:52+01:00</time>
      </trkpt>
      <trkpt lat="44.97578" lon="4.6879">
        <ele>613</ele>
        <time>2018-01-24T15:07:01+01:00</time>
      </trkpt>
      <trkpt lat="44.97585" lon="4.68793">
        <ele>612</ele>
        <time>2018-01-24T15:07:10+01:00</time>
      </trkpt>
      <trkpt lat="44.97596" lon="4.68801">
        <ele>612</ele>
        <time>2018-01-24T15:07:18+01:00</time>
      </trkpt>
      <trkpt lat="44.976" lon="4.68804">
        <ele>612</ele>
        <time>2018-01-24T15:07:24+01:00</time>
      </trkpt>
      <trkpt lat="44.97608" lon="4.68806">
        <ele>611</ele>
        <time>2018-01-24T15:07:32+01:00</time>
      </trkpt>
      <trkpt lat="44.9762" lon="4.68808">
        <ele>608</ele>
        <time>2018-01-24T15:07:40+01:00</time>
      </trkpt>
      <trkpt lat="44.9763" lon="4.68809">
        <ele>606</ele>
        <time>2018-01-24T15:07:49+01:00</time>
      </trkpt>
      <trkpt lat="44.97641" lon="4.68809">
        <ele>603</ele>
        <time>2018-01-24T15:07:57+01:00</time>
      </trkpt>
      <trkpt lat="44.97646" lon="4.68808">
        <ele>602</ele>
        <time>2018-01-24T15:08:04+01:00</time>
      </trkpt>
      <trkpt lat="44.97653" lon="4.68809">
        <ele>600</ele>
        <time>2018-01-24T15:08:11+01:00</time>
      </trkpt>
      <trkpt lat="44.97662" lon="4.6881">
        <ele>598</ele>
        <time>2018-01-24T15:08:19+01:00</time>
      </trkpt>
      <trkpt lat="44.97671" lon="4.68812">
        <ele>597</ele>
        <time>2018-01-24T15:08:27+01:00</time>
      </trkpt>
      <trkpt lat="44.97679" lon="4.68815">
        <ele>595</ele>
        <time>2018-01-24T15:08:35+01:00</time>
      </trkpt>
      <trkpt lat="44.9769" lon="4.68815">
        <ele>594</ele>
        <time>2018-01-24T15:08:44+01:00</time>
      </trkpt>
      <trkpt lat="44.97695" lon="4.68818">
        <ele>593</ele>
        <time>2018-01-24T15:08:48+01:00</time>
      </trkpt>
      <trkpt lat="44.977" lon="4.68818">
        <ele>592</ele>
        <time>2018-01-24T15:08:56+01:00</time>
      </trkpt>
      <trkpt lat="44.97704" lon="4.68817">
        <ele>592</ele>
        <time>2018-01-24T15:09:04+01:00</time>
      </trkpt>
      <trkpt lat="44.97711" lon="4.68817">
        <ele>590</ele>
        <time>2018-01-24T15:09:15+01:00</time>
      </trkpt>
      <trkpt lat="44.97721" lon="4.68818">
        <ele>589</ele>
        <time>2018-01-24T15:09:24+01:00</time>
      </trkpt>
      <trkpt lat="44.9773" lon="4.68817">
        <ele>587</ele>
        <time>2018-01-24T15:09:32+01:00</time>
      </trkpt>
      <trkpt lat="44.97742" lon="4.68813">
        <ele>586</ele>
        <time>2018-01-24T15:09:41+01:00</time>
      </trkpt>
      <trkpt lat="44.97751" lon="4.68809">
        <ele>584</ele>
        <time>2018-01-24T15:09:50+01:00</time>
      </trkpt>
      <trkpt lat="44.97757" lon="4.68807">
        <ele>584</ele>
        <time>2018-01-24T15:09:57+01:00</time>
      </trkpt>
      <trkpt lat="44.97766" lon="4.68804">
        <ele>583</ele>
        <time>2018-01-24T15:10:05+01:00</time>
      </trkpt>
      <trkpt lat="44.97776" lon="4.68802">
        <ele>582</ele>
        <time>2018-01-24T15:10:12+01:00</time>
      </trkpt>
      <trkpt lat="44.97786" lon="4.688">
        <ele>582</ele>
        <time>2018-01-24T15:10:20+01:00</time>
      </trkpt>
      <trkpt lat="44.97793" lon="4.68797">
        <ele>581</ele>
        <time>2018-01-24T15:10:28+01:00</time>
      </trkpt>
      <trkpt lat="44.97796" lon="4.68794">
        <ele>581</ele>
        <time>2018-01-24T15:10:41+01:00</time>
      </trkpt>
      <trkpt lat="44.97802" lon="4.68796">
        <ele>581</ele>
        <time>2018-01-24T15:10:47+01:00</time>
      </trkpt>
      <trkpt lat="44.97811" lon="4.68796">
        <ele>580</ele>
        <time>2018-01-24T15:10:55+01:00</time>
      </trkpt>
      <trkpt lat="44.97825" lon="4.68795">
        <ele>579</ele>
        <time>2018-01-24T15:11:06+01:00</time>
      </trkpt>
      <trkpt lat="44.97836" lon="4.68795">
        <ele>578</ele>
        <time>2018-01-24T15:11:15+01:00</time>
      </trkpt>
      <trkpt lat="44.97847" lon="4.68797">
        <ele>578</ele>
        <time>2018-01-24T15:11:25+01:00</time>
      </trkpt>
      <trkpt lat="44.97856" lon="4.68799">
        <ele>577</ele>
        <time>2018-01-24T15:11:33+01:00</time>
      </trkpt>
      <trkpt lat="44.97863" lon="4.68802">
        <ele>577</ele>
        <time>2018-01-24T15:11:41+01:00</time>
      </trkpt>
      <trkpt lat="44.97874" lon="4.68805">
        <ele>576</ele>
        <time>2018-01-24T15:11:52+01:00</time>
      </trkpt>
      <trkpt lat="44.97881" lon="4.68807">
        <ele>576</ele>
        <time>2018-01-24T15:11:59+01:00</time>
      </trkpt>
      <trkpt lat="44.97893" lon="4.6881">
        <ele>575</ele>
        <time>2018-01-24T15:12:09+01:00</time>
      </trkpt>
      <trkpt lat="44.97901" lon="4.68813">
        <ele>574</ele>
        <time>2018-01-24T15:12:16+01:00</time>
      </trkpt>
      <trkpt lat="44.97911" lon="4.68814">
        <ele>574</ele>
        <time>2018-01-24T15:12:24+01:00</time>
      </trkpt>
      <trkpt lat="44.97923" lon="4.68814">
        <ele>574</ele>
        <time>2018-01-24T15:12:33+01:00</time>
      </trkpt>
      <trkpt lat="44.97932" lon="4.68815">
        <ele>574</ele>
        <time>2018-01-24T15:12:39+01:00</time>
      </trkpt>
      <trkpt lat="44.97942" lon="4.68817">
        <ele>574</ele>
        <time>2018-01-24T15:12:48+01:00</time>
      </trkpt>
      <trkpt lat="44.97951" lon="4.6882">
        <ele>574</ele>
        <time>2018-01-24T15:12:57+01:00</time>
      </trkpt>
      <trkpt lat="44.97958" lon="4.68822">
        <ele>573</ele>
        <time>2018-01-24T15:13:04+01:00</time>
      </trkpt>
      <trkpt lat="44.9797" lon="4.68823">
        <ele>574</ele>
        <time>2018-01-24T15:13:15+01:00</time>
      </trkpt>
      <trkpt lat="44.97979" lon="4.68825">
        <ele>574</ele>
        <time>2018-01-24T15:13:23+01:00</time>
      </trkpt>
      <trkpt lat="44.97989" lon="4.68828">
        <ele>573</ele>
        <time>2018-01-24T15:13:33+01:00</time>
      </trkpt>
      <trkpt lat="44.97999" lon="4.6883">
        <ele>573</ele>
        <time>2018-01-24T15:13:42+01:00</time>
      </trkpt>
      <trkpt lat="44.98008" lon="4.68832">
        <ele>572</ele>
        <time>2018-01-24T15:13:48+01:00</time>
      </trkpt>
      <trkpt lat="44.98026" lon="4.68839">
        <ele>570</ele>
        <time>2018-01-24T15:13:57+01:00</time>
      </trkpt>
      <trkpt lat="44.98038" lon="4.68841">
        <ele>570</ele>
        <time>2018-01-24T15:14:05+01:00</time>
      </trkpt>
      <trkpt lat="44.98046" lon="4.68846">
        <ele>568</ele>
        <time>2018-01-24T15:14:13+01:00</time>
      </trkpt>
      <trkpt lat="44.98054" lon="4.68849">
        <ele>567</ele>
        <time>2018-01-24T15:14:21+01:00</time>
      </trkpt>
      <trkpt lat="44.98064" lon="4.68851">
        <ele>566</ele>
        <time>2018-01-24T15:14:30+01:00</time>
      </trkpt>
      <trkpt lat="44.98076" lon="4.68851">
        <ele>566</ele>
        <time>2018-01-24T15:14:39+01:00</time>
      </trkpt>
      <trkpt lat="44.98085" lon="4.68854">
        <ele>565</ele>
        <time>2018-01-24T15:14:46+01:00</time>
      </trkpt>
      <trkpt lat="44.98093" lon="4.68858">
        <ele>562</ele>
        <time>2018-01-24T15:14:55+01:00</time>
      </trkpt>
      <trkpt lat="44.98097" lon="4.68861">
        <ele>560</ele>
        <time>2018-01-24T15:15:03+01:00</time>
      </trkpt>
      <trkpt lat="44.98103" lon="4.68864">
        <ele>558</ele>
        <time>2018-01-24T15:15:10+01:00</time>
      </trkpt>
      <trkpt lat="44.98107" lon="4.68864">
        <ele>557</ele>
        <time>2018-01-24T15:15:14+01:00</time>
      </trkpt>
      <trkpt lat="44.9812" lon="4.68865">
        <ele>554</ele>
        <time>2018-01-24T15:15:23+01:00</time>
      </trkpt>
      <trkpt lat="44.9813" lon="4.68864">
        <ele>552</ele>
        <time>2018-01-24T15:15:32+01:00</time>
      </trkpt>
      <trkpt lat="44.98134" lon="4.68862">
        <ele>552</ele>
        <time>2018-01-24T15:15:39+01:00</time>
      </trkpt>
      <trkpt lat="44.98146" lon="4.68863">
        <ele>549</ele>
        <time>2018-01-24T15:15:47+01:00</time>
      </trkpt>
      <trkpt lat="44.9815" lon="4.68865">
        <ele>548</ele>
        <time>2018-01-24T15:15:52+01:00</time>
      </trkpt>
      <trkpt lat="44.98156" lon="4.68872">
        <ele>545</ele>
        <time>2018-01-24T15:16:01+01:00</time>
      </trkpt>
      <trkpt lat="44.98164" lon="4.68874">
        <ele>543</ele>
        <time>2018-01-24T15:16:09+01:00</time>
      </trkpt>
      <trkpt lat="44.9817" lon="4.68875">
        <ele>542</ele>
        <time>2018-01-24T15:16:18+01:00</time>
      </trkpt>
      <trkpt lat="44.98176" lon="4.68871">
        <ele>543</ele>
        <time>2018-01-24T15:16:24+01:00</time>
      </trkpt>
      <trkpt lat="44.98177" lon="4.68873">
        <ele>542</ele>
        <time>2018-01-24T15:16:35+01:00</time>
      </trkpt>
      <trkpt lat="44.98187" lon="4.68874">
        <ele>541</ele>
        <time>2018-01-24T15:16:43+01:00</time>
      </trkpt>
      <trkpt lat="44.9819" lon="4.68874">
        <ele>541</ele>
        <time>2018-01-24T15:16:45+01:00</time>
      </trkpt>
      <trkpt lat="44.98201" lon="4.68875">
        <ele>541</ele>
        <time>2018-01-24T15:16:55+01:00</time>
      </trkpt>
      <trkpt lat="44.98211" lon="4.68879">
        <ele>539</ele>
        <time>2018-01-24T15:17:02+01:00</time>
      </trkpt>
      <trkpt lat="44.98218" lon="4.68882">
        <ele>538</ele>
        <time>2018-01-24T15:17:09+01:00</time>
      </trkpt>
      <trkpt lat="44.98223" lon="4.68886">
        <ele>537</ele>
        <time>2018-01-24T15:17:15+01:00</time>
      </trkpt>
      <trkpt lat="44.98231" lon="4.6889">
        <ele>535</ele>
        <time>2018-01-24T15:17:23+01:00</time>
      </trkpt>
      <trkpt lat="44.98239" lon="4.689">
        <ele>532</ele>
        <time>2018-01-24T15:17:31+01:00</time>
      </trkpt>
      <trkpt lat="44.98241" lon="4.68902">
        <ele>532</ele>
        <time>2018-01-24T15:17:35+01:00</time>
      </trkpt>
      <trkpt lat="44.98251" lon="4.68907">
        <ele>530</ele>
        <time>2018-01-24T15:17:43+01:00</time>
      </trkpt>
      <trkpt lat="44.98259" lon="4.68914">
        <ele>528</ele>
        <time>2018-01-24T15:17:50+01:00</time>
      </trkpt>
      <trkpt lat="44.98255" lon="4.68913">
        <ele>528</ele>
        <time>2018-01-24T15:17:58+01:00</time>
      </trkpt>
      <trkpt lat="44.98252" lon="4.68917">
        <ele>527</ele>
        <time>2018-01-24T15:18:11+01:00</time>
      </trkpt>
      <trkpt lat="44.98257" lon="4.68921">
        <ele>527</ele>
        <time>2018-01-24T15:18:19+01:00</time>
      </trkpt>
      <trkpt lat="44.98259" lon="4.68925">
        <ele>527</ele>
        <time>2018-01-24T15:18:27+01:00</time>
      </trkpt>
      <trkpt lat="44.98263" lon="4.68921">
        <ele>527</ele>
        <time>2018-01-24T15:18:35+01:00</time>
      </trkpt>
      <trkpt lat="44.98266" lon="4.68923">
        <ele>527</ele>
        <time>2018-01-24T15:18:44+01:00</time>
      </trkpt>
      <trkpt lat="44.98271" lon="4.68928">
        <ele>527</ele>
        <time>2018-01-24T15:18:53+01:00</time>
      </trkpt>
      <trkpt lat="44.98279" lon="4.6893">
        <ele>527</ele>
        <time>2018-01-24T15:19:00+01:00</time>
      </trkpt>
      <trkpt lat="44.98285" lon="4.68933">
        <ele>527</ele>
        <time>2018-01-24T15:19:07+01:00</time>
      </trkpt>
      <trkpt lat="44.98291" lon="4.68934">
        <ele>527</ele>
        <time>2018-01-24T15:19:13+01:00</time>
      </trkpt>
      <trkpt lat="44.98295" lon="4.68936">
        <ele>527</ele>
        <time>2018-01-24T15:19:16+01:00</time>
      </trkpt>
      <trkpt lat="44.98303" lon="4.68935">
        <ele>527</ele>
        <time>2018-01-24T15:19:23+01:00</time>
      </trkpt>
      <trkpt lat="44.98312" lon="4.68937">
        <ele>526</ele>
        <time>2018-01-24T15:19:31+01:00</time>
      </trkpt>
      <trkpt lat="44.98324" lon="4.68937">
        <ele>526</ele>
        <time>2018-01-24T15:19:40+01:00</time>
      </trkpt>
      <trkpt lat="44.98326" lon="4.68938">
        <ele>526</ele>
        <time>2018-01-24T15:19:42+01:00</time>
      </trkpt>
      <trkpt lat="44.98342" lon="4.68936">
        <ele>525</ele>
        <time>2018-01-24T15:19:50+01:00</time>
      </trkpt>
      <trkpt lat="44.98355" lon="4.68936">
        <ele>523</ele>
        <time>2018-01-24T15:19:57+01:00</time>
      </trkpt>
      <trkpt lat="44.98361" lon="4.68932">
        <ele>523</ele>
        <time>2018-01-24T15:20:05+01:00</time>
      </trkpt>
      <trkpt lat="44.98364" lon="4.68928">
        <ele>523</ele>
        <time>2018-01-24T15:20:15+01:00</time>
      </trkpt>
      <trkpt lat="44.9837" lon="4.6893">
        <ele>522</ele>
        <time>2018-01-24T15:20:23+01:00</time>
      </trkpt>
      <trkpt lat="44.9838" lon="4.68928">
        <ele>520</ele>
        <time>2018-01-24T15:20:32+01:00</time>
      </trkpt>
      <trkpt lat="44.98386" lon="4.68927">
        <ele>520</ele>
        <time>2018-01-24T15:20:39+01:00</time>
      </trkpt>
      <trkpt lat="44.98394" lon="4.68925">
        <ele>519</ele>
        <time>2018-01-24T15:20:46+01:00</time>
      </trkpt>
      <trkpt lat="44.98403" lon="4.68922">
        <ele>518</ele>
        <time>2018-01-24T15:20:53+01:00</time>
      </trkpt>
      <trkpt lat="44.98411" lon="4.68918">
        <ele>517</ele>
        <time>2018-01-24T15:21:02+01:00</time>
      </trkpt>
      <trkpt lat="44.98413" lon="4.68915">
        <ele>517</ele>
        <time>2018-01-24T15:21:06+01:00</time>
      </trkpt>
      <trkpt lat="44.98429" lon="4.68908">
        <ele>515</ele>
        <time>2018-01-24T15:21:15+01:00</time>
      </trkpt>
      <trkpt lat="44.98434" lon="4.68908">
        <ele>514</ele>
        <time>2018-01-24T15:21:20+01:00</time>
      </trkpt>
      <trkpt lat="44.98438" lon="4.68908">
        <ele>514</ele>
        <time>2018-01-24T15:21:23+01:00</time>
      </trkpt>
      <trkpt lat="44.98442" lon="4.68909">
        <ele>513</ele>
        <time>2018-01-24T15:21:28+01:00</time>
      </trkpt>
      <trkpt lat="44.98455" lon="4.68908">
        <ele>510</ele>
        <time>2018-01-24T15:21:35+01:00</time>
      </trkpt>
      <trkpt lat="44.98463" lon="4.68904">
        <ele>509</ele>
        <time>2018-01-24T15:21:42+01:00</time>
      </trkpt>
      <trkpt lat="44.98473" lon="4.68897">
        <ele>508</ele>
        <time>2018-01-24T15:21:51+01:00</time>
      </trkpt>
      <trkpt lat="44.98483" lon="4.6889">
        <ele>507</ele>
        <time>2018-01-24T15:22:00+01:00</time>
      </trkpt>
      <trkpt lat="44.98493" lon="4.68882">
        <ele>506</ele>
        <time>2018-01-24T15:22:09+01:00</time>
      </trkpt>
      <trkpt lat="44.985" lon="4.68873">
        <ele>505</ele>
        <time>2018-01-24T15:22:17+01:00</time>
      </trkpt>
      <trkpt lat="44.98509" lon="4.68865">
        <ele>504</ele>
        <time>2018-01-24T15:22:27+01:00</time>
      </trkpt>
      <trkpt lat="44.98512" lon="4.68862">
        <ele>504</ele>
        <time>2018-01-24T15:22:30+01:00</time>
      </trkpt>
      <trkpt lat="44.98516" lon="4.68857">
        <ele>504</ele>
        <time>2018-01-24T15:22:35+01:00</time>
      </trkpt>
      <trkpt lat="44.98525" lon="4.68846">
        <ele>503</ele>
        <time>2018-01-24T15:22:44+01:00</time>
      </trkpt>
      <trkpt lat="44.98531" lon="4.68834">
        <ele>503</ele>
        <time>2018-01-24T15:22:53+01:00</time>
      </trkpt>
      <trkpt lat="44.98539" lon="4.68824">
        <ele>502</ele>
        <time>2018-01-24T15:23:02+01:00</time>
      </trkpt>
      <trkpt lat="44.9854" lon="4.68822">
        <ele>502</ele>
        <time>2018-01-24T15:23:08+01:00</time>
      </trkpt>
      <trkpt lat="44.98541" lon="4.68819">
        <ele>502</ele>
        <time>2018-01-24T15:23:19+01:00</time>
      </trkpt>
      <trkpt lat="44.98544" lon="4.68816">
        <ele>502</ele>
        <time>2018-01-24T15:23:26+01:00</time>
      </trkpt>
      <trkpt lat="44.98545" lon="4.68816">
        <ele>501</ele>
        <time>2018-01-24T15:23:33+01:00</time>
      </trkpt>
      <trkpt lat="44.98553" lon="4.68809">
        <ele>500</ele>
        <time>2018-01-24T15:23:42+01:00</time>
      </trkpt>
      <trkpt lat="44.98573" lon="4.68795">
        <ele>496</ele>
        <time>2018-01-24T15:26:21+01:00</time>
      </trkpt>
      <trkpt lat="44.9859" lon="4.68791">
        <ele>493</ele>
      </trkpt>
      <trkpt lat="44.98605" lon="4.68797">
        <ele>492</ele>
        <time>2018-01-24T15:26:29+01:00</time>
      </trkpt>
    </trkseg>
  </trk>
</gpx>